<?xml version="1.0" encoding="UTF-8" standalone="no" ?>
<gpx xmlns="http://www.topografix.com/GPX/1/1" xmlns:xsi="http://www.w3.org/2001/XMLSchema-instance" xsi:schemaLocation="http://www.topografix.com/GPX/1/1 http://www.topografix.com/GPX/1/1/gpx.xsd" version="1.1" creator="VisuGPX - https://www.visugpx.com">
  <metadata>
    <name>Marche rose</name>
  </metadata>
  <trk>
    <name><![CDATA[Marche rose]]></name>
    <trkseg>
      <trkpt lat="47.78554" lon="5.06418">
        <ele>345.26</ele>
        <time>2021-10-16T07:04:44Z</time>
      </trkpt>
      <trkpt lat="47.78554" lon="5.06415">
        <ele>344.29</ele>
        <time>2021-10-16T07:05:18Z</time>
      </trkpt>
      <trkpt lat="47.78555" lon="5.06414">
        <ele>340.73</ele>
        <time>2021-10-16T07:05:50Z</time>
      </trkpt>
      <trkpt lat="47.78555" lon="5.06414">
        <ele>346.29</ele>
        <time>2021-10-16T07:05:51Z</time>
      </trkpt>
      <trkpt lat="47.78556" lon="5.06415">
        <ele>344.7</ele>
        <time>2021-10-16T07:05:53Z</time>
      </trkpt>
      <trkpt lat="47.78558" lon="5.06412">
        <ele>344.15</ele>
        <time>2021-10-16T07:06:11Z</time>
      </trkpt>
      <trkpt lat="47.78559" lon="5.06415">
        <ele>344.25</ele>
        <time>2021-10-16T07:06:39Z</time>
      </trkpt>
      <trkpt lat="47.78559" lon="5.06413">
        <ele>344.13</ele>
        <time>2021-10-16T07:06:58Z</time>
      </trkpt>
      <trkpt lat="47.78558" lon="5.06412">
        <ele>344.18</ele>
        <time>2021-10-16T07:07:22Z</time>
      </trkpt>
      <trkpt lat="47.78558" lon="5.06412">
        <ele>344.26</ele>
        <time>2021-10-16T07:07:52Z</time>
      </trkpt>
      <trkpt lat="47.78563" lon="5.06408">
        <ele>344.29</ele>
        <time>2021-10-16T07:08:20Z</time>
      </trkpt>
      <trkpt lat="47.7856" lon="5.06414">
        <ele>344.87</ele>
        <time>2021-10-16T07:08:46Z</time>
      </trkpt>
      <trkpt lat="47.78558" lon="5.06414">
        <ele>345.19</ele>
        <time>2021-10-16T07:08:59Z</time>
      </trkpt>
      <trkpt lat="47.78557" lon="5.06413">
        <ele>341.88</ele>
        <time>2021-10-16T07:09:12Z</time>
      </trkpt>
      <trkpt lat="47.78557" lon="5.06413">
        <ele>345.71</ele>
        <time>2021-10-16T07:09:13Z</time>
      </trkpt>
      <trkpt lat="47.78557" lon="5.0641">
        <ele>344.52</ele>
        <time>2021-10-16T07:09:32Z</time>
      </trkpt>
      <trkpt lat="47.78558" lon="5.06411">
        <ele>336.57</ele>
        <time>2021-10-16T07:09:33Z</time>
      </trkpt>
      <trkpt lat="47.78558" lon="5.06411">
        <ele>348.32</ele>
        <time>2021-10-16T07:09:34Z</time>
      </trkpt>
      <trkpt lat="47.78558" lon="5.06412">
        <ele>345.17</ele>
        <time>2021-10-16T07:09:36Z</time>
      </trkpt>
      <trkpt lat="47.78558" lon="5.06412">
        <ele>337.28</ele>
        <time>2021-10-16T07:09:37Z</time>
      </trkpt>
      <trkpt lat="47.78558" lon="5.06412">
        <ele>344.58</ele>
        <time>2021-10-16T07:09:38Z</time>
      </trkpt>
      <trkpt lat="47.78558" lon="5.06412">
        <ele>347.62</ele>
        <time>2021-10-16T07:09:39Z</time>
      </trkpt>
      <trkpt lat="47.78557" lon="5.06412">
        <ele>345.59</ele>
        <time>2021-10-16T07:09:40Z</time>
      </trkpt>
      <trkpt lat="47.78557" lon="5.06412">
        <ele>336.04</ele>
        <time>2021-10-16T07:09:42Z</time>
      </trkpt>
      <trkpt lat="47.78557" lon="5.06412">
        <ele>349.85</ele>
        <time>2021-10-16T07:09:43Z</time>
      </trkpt>
      <trkpt lat="47.78558" lon="5.06412">
        <ele>346.08</ele>
        <time>2021-10-16T07:09:44Z</time>
      </trkpt>
      <trkpt lat="47.78558" lon="5.06413">
        <ele>329.61</ele>
        <time>2021-10-16T07:09:46Z</time>
      </trkpt>
      <trkpt lat="47.78558" lon="5.06413">
        <ele>351.13</ele>
        <time>2021-10-16T07:09:47Z</time>
      </trkpt>
      <trkpt lat="47.78557" lon="5.06413">
        <ele>347.15</ele>
        <time>2021-10-16T07:09:48Z</time>
      </trkpt>
      <trkpt lat="47.78557" lon="5.06413">
        <ele>342.79</ele>
        <time>2021-10-16T07:09:50Z</time>
      </trkpt>
      <trkpt lat="47.78558" lon="5.06414">
        <ele>330.31</ele>
        <time>2021-10-16T07:09:51Z</time>
      </trkpt>
      <trkpt lat="47.78558" lon="5.06414">
        <ele>347.29</ele>
        <time>2021-10-16T07:09:52Z</time>
      </trkpt>
      <trkpt lat="47.78558" lon="5.06414">
        <ele>346.25</ele>
        <time>2021-10-16T07:09:53Z</time>
      </trkpt>
      <trkpt lat="47.78558" lon="5.06414">
        <ele>337.87</ele>
        <time>2021-10-16T07:09:54Z</time>
      </trkpt>
      <trkpt lat="47.78558" lon="5.06414">
        <ele>343.91</ele>
        <time>2021-10-16T07:09:55Z</time>
      </trkpt>
      <trkpt lat="47.78558" lon="5.06415">
        <ele>348.13</ele>
        <time>2021-10-16T07:09:56Z</time>
      </trkpt>
      <trkpt lat="47.78558" lon="5.06415">
        <ele>345.31</ele>
        <time>2021-10-16T07:09:57Z</time>
      </trkpt>
      <trkpt lat="47.78558" lon="5.06416">
        <ele>327.98</ele>
        <time>2021-10-16T07:09:59Z</time>
      </trkpt>
      <trkpt lat="47.78558" lon="5.06417">
        <ele>350.58</ele>
        <time>2021-10-16T07:10:00Z</time>
      </trkpt>
      <trkpt lat="47.78559" lon="5.06418">
        <ele>348.58</ele>
        <time>2021-10-16T07:10:01Z</time>
      </trkpt>
      <trkpt lat="47.78558" lon="5.06417">
        <ele>343.73</ele>
        <time>2021-10-16T07:10:03Z</time>
      </trkpt>
      <trkpt lat="47.78558" lon="5.06417">
        <ele>333.88</ele>
        <time>2021-10-16T07:10:04Z</time>
      </trkpt>
      <trkpt lat="47.78558" lon="5.06417">
        <ele>351.19</ele>
        <time>2021-10-16T07:10:05Z</time>
      </trkpt>
      <trkpt lat="47.78559" lon="5.06417">
        <ele>346.18</ele>
        <time>2021-10-16T07:10:06Z</time>
      </trkpt>
      <trkpt lat="47.78559" lon="5.06417">
        <ele>327.32</ele>
        <time>2021-10-16T07:10:08Z</time>
      </trkpt>
      <trkpt lat="47.78558" lon="5.06416">
        <ele>353.01</ele>
        <time>2021-10-16T07:10:09Z</time>
      </trkpt>
      <trkpt lat="47.78558" lon="5.06416">
        <ele>347.44</ele>
        <time>2021-10-16T07:10:10Z</time>
      </trkpt>
      <trkpt lat="47.78558" lon="5.06415">
        <ele>336.36</ele>
        <time>2021-10-16T07:10:12Z</time>
      </trkpt>
      <trkpt lat="47.78558" lon="5.06415">
        <ele>346.39</ele>
        <time>2021-10-16T07:10:13Z</time>
      </trkpt>
      <trkpt lat="47.78557" lon="5.06416">
        <ele>332.29</ele>
        <time>2021-10-16T07:10:17Z</time>
      </trkpt>
      <trkpt lat="47.78557" lon="5.06416">
        <ele>350.82</ele>
        <time>2021-10-16T07:10:18Z</time>
      </trkpt>
      <trkpt lat="47.78557" lon="5.06416">
        <ele>345.64</ele>
        <time>2021-10-16T07:10:19Z</time>
      </trkpt>
      <trkpt lat="47.7856" lon="5.06413">
        <ele>344.08</ele>
        <time>2021-10-16T07:10:35Z</time>
      </trkpt>
      <trkpt lat="47.7856" lon="5.06415">
        <ele>344.35</ele>
        <time>2021-10-16T07:10:54Z</time>
      </trkpt>
      <trkpt lat="47.78559" lon="5.06415">
        <ele>344.4</ele>
        <time>2021-10-16T07:11:20Z</time>
      </trkpt>
      <trkpt lat="47.78559" lon="5.06411">
        <ele>344.48</ele>
        <time>2021-10-16T07:11:38Z</time>
      </trkpt>
      <trkpt lat="47.78559" lon="5.06414">
        <ele>343.9</ele>
        <time>2021-10-16T07:12:01Z</time>
      </trkpt>
      <trkpt lat="47.78558" lon="5.06415">
        <ele>344.05</ele>
        <time>2021-10-16T07:12:18Z</time>
      </trkpt>
      <trkpt lat="47.78556" lon="5.06414">
        <ele>344.89</ele>
        <time>2021-10-16T07:12:41Z</time>
      </trkpt>
      <trkpt lat="47.78556" lon="5.06414">
        <ele>343.99</ele>
        <time>2021-10-16T07:13:18Z</time>
      </trkpt>
      <trkpt lat="47.78561" lon="5.06418">
        <ele>343.89</ele>
        <time>2021-10-16T07:13:50Z</time>
      </trkpt>
      <trkpt lat="47.78559" lon="5.06419">
        <ele>343.75</ele>
        <time>2021-10-16T07:13:56Z</time>
      </trkpt>
      <trkpt lat="47.78558" lon="5.06419">
        <ele>343.85</ele>
        <time>2021-10-16T07:13:58Z</time>
      </trkpt>
      <trkpt lat="47.78545" lon="5.06425">
        <ele>345.33</ele>
        <time>2021-10-16T07:14:12Z</time>
      </trkpt>
      <trkpt lat="47.78541" lon="5.0643">
        <ele>345.34</ele>
        <time>2021-10-16T07:14:17Z</time>
      </trkpt>
      <trkpt lat="47.7854" lon="5.06433">
        <ele>345.3</ele>
        <time>2021-10-16T07:14:19Z</time>
      </trkpt>
      <trkpt lat="47.78537" lon="5.06452">
        <ele>345.45</ele>
        <time>2021-10-16T07:14:33Z</time>
      </trkpt>
      <trkpt lat="47.78535" lon="5.06457">
        <ele>345.77</ele>
        <time>2021-10-16T07:14:43Z</time>
      </trkpt>
      <trkpt lat="47.78536" lon="5.06467">
        <ele>345.8</ele>
        <time>2021-10-16T07:14:49Z</time>
      </trkpt>
      <trkpt lat="47.78537" lon="5.06497">
        <ele>346.15</ele>
        <time>2021-10-16T07:15:07Z</time>
      </trkpt>
      <trkpt lat="47.78537" lon="5.06501">
        <ele>345.68</ele>
        <time>2021-10-16T07:15:10Z</time>
      </trkpt>
      <trkpt lat="47.78536" lon="5.06508">
        <ele>345.78</ele>
        <time>2021-10-16T07:15:14Z</time>
      </trkpt>
      <trkpt lat="47.78539" lon="5.06538">
        <ele>345.45</ele>
        <time>2021-10-16T07:15:31Z</time>
      </trkpt>
      <trkpt lat="47.78539" lon="5.06561">
        <ele>345.38</ele>
        <time>2021-10-16T07:15:44Z</time>
      </trkpt>
      <trkpt lat="47.78539" lon="5.06589">
        <ele>345.48</ele>
        <time>2021-10-16T07:16:00Z</time>
      </trkpt>
      <trkpt lat="47.7854" lon="5.066">
        <ele>345.72</ele>
        <time>2021-10-16T07:16:16Z</time>
      </trkpt>
      <trkpt lat="47.78539" lon="5.066">
        <ele>345.39</ele>
        <time>2021-10-16T07:16:41Z</time>
      </trkpt>
      <trkpt lat="47.78542" lon="5.06605">
        <ele>345.26</ele>
        <time>2021-10-16T07:17:15Z</time>
      </trkpt>
      <trkpt lat="47.7854" lon="5.06609">
        <ele>344.99</ele>
        <time>2021-10-16T07:17:52Z</time>
      </trkpt>
      <trkpt lat="47.78544" lon="5.06619">
        <ele>344.87</ele>
        <time>2021-10-16T07:17:59Z</time>
      </trkpt>
      <trkpt lat="47.78549" lon="5.06633">
        <ele>344.88</ele>
        <time>2021-10-16T07:18:09Z</time>
      </trkpt>
      <trkpt lat="47.78549" lon="5.0665">
        <ele>344.66</ele>
        <time>2021-10-16T07:18:21Z</time>
      </trkpt>
      <trkpt lat="47.78549" lon="5.06654">
        <ele>344.7</ele>
        <time>2021-10-16T07:18:24Z</time>
      </trkpt>
      <trkpt lat="47.78545" lon="5.06685">
        <ele>344.95</ele>
        <time>2021-10-16T07:18:41Z</time>
      </trkpt>
      <trkpt lat="47.78543" lon="5.06697">
        <ele>344.93</ele>
        <time>2021-10-16T07:18:58Z</time>
      </trkpt>
      <trkpt lat="47.78542" lon="5.06704">
        <ele>344.99</ele>
        <time>2021-10-16T07:19:03Z</time>
      </trkpt>
      <trkpt lat="47.78535" lon="5.06736">
        <ele>345.01</ele>
        <time>2021-10-16T07:19:21Z</time>
      </trkpt>
      <trkpt lat="47.78528" lon="5.0676">
        <ele>344.97</ele>
        <time>2021-10-16T07:19:35Z</time>
      </trkpt>
      <trkpt lat="47.7852" lon="5.06785">
        <ele>345.4</ele>
        <time>2021-10-16T07:19:49Z</time>
      </trkpt>
      <trkpt lat="47.7852" lon="5.06816">
        <ele>345.38</ele>
        <time>2021-10-16T07:20:06Z</time>
      </trkpt>
      <trkpt lat="47.78518" lon="5.06846">
        <ele>344.56</ele>
        <time>2021-10-16T07:20:22Z</time>
      </trkpt>
      <trkpt lat="47.78519" lon="5.06851">
        <ele>344.3</ele>
        <time>2021-10-16T07:20:26Z</time>
      </trkpt>
      <trkpt lat="47.78518" lon="5.0686">
        <ele>344.11</ele>
        <time>2021-10-16T07:20:31Z</time>
      </trkpt>
      <trkpt lat="47.78515" lon="5.06881">
        <ele>343.26</ele>
        <time>2021-10-16T07:20:44Z</time>
      </trkpt>
      <trkpt lat="47.78512" lon="5.06916">
        <ele>342.75</ele>
        <time>2021-10-16T07:21:01Z</time>
      </trkpt>
      <trkpt lat="47.78512" lon="5.06934">
        <ele>342.73</ele>
        <time>2021-10-16T07:21:10Z</time>
      </trkpt>
      <trkpt lat="47.78515" lon="5.06958">
        <ele>342.69</ele>
        <time>2021-10-16T07:21:23Z</time>
      </trkpt>
      <trkpt lat="47.78514" lon="5.06983">
        <ele>341.83</ele>
        <time>2021-10-16T07:21:39Z</time>
      </trkpt>
      <trkpt lat="47.78513" lon="5.07004">
        <ele>340.86</ele>
        <time>2021-10-16T07:21:49Z</time>
      </trkpt>
      <trkpt lat="47.78514" lon="5.07025">
        <ele>340.29</ele>
        <time>2021-10-16T07:22:01Z</time>
      </trkpt>
      <trkpt lat="47.78513" lon="5.07033">
        <ele>340.15</ele>
        <time>2021-10-16T07:22:05Z</time>
      </trkpt>
      <trkpt lat="47.78513" lon="5.07039">
        <ele>339.94</ele>
        <time>2021-10-16T07:22:08Z</time>
      </trkpt>
      <trkpt lat="47.78513" lon="5.07048">
        <ele>339.63</ele>
        <time>2021-10-16T07:22:13Z</time>
      </trkpt>
      <trkpt lat="47.78512" lon="5.07058">
        <ele>339.08</ele>
        <time>2021-10-16T07:22:17Z</time>
      </trkpt>
      <trkpt lat="47.7851" lon="5.07069">
        <ele>338.47</ele>
        <time>2021-10-16T07:22:23Z</time>
      </trkpt>
      <trkpt lat="47.7851" lon="5.07078">
        <ele>337.92</ele>
        <time>2021-10-16T07:22:27Z</time>
      </trkpt>
      <trkpt lat="47.78505" lon="5.07109">
        <ele>336.23</ele>
        <time>2021-10-16T07:22:45Z</time>
      </trkpt>
      <trkpt lat="47.78505" lon="5.07116">
        <ele>336.05</ele>
        <time>2021-10-16T07:22:48Z</time>
      </trkpt>
      <trkpt lat="47.78504" lon="5.07124">
        <ele>335.92</ele>
        <time>2021-10-16T07:22:52Z</time>
      </trkpt>
      <trkpt lat="47.78512" lon="5.07153">
        <ele>335.88</ele>
        <time>2021-10-16T07:23:07Z</time>
      </trkpt>
      <trkpt lat="47.78518" lon="5.07159">
        <ele>335.76</ele>
        <time>2021-10-16T07:23:13Z</time>
      </trkpt>
      <trkpt lat="47.78534" lon="5.07176">
        <ele>336.65</ele>
        <time>2021-10-16T07:23:27Z</time>
      </trkpt>
      <trkpt lat="47.78544" lon="5.07182">
        <ele>336.04</ele>
        <time>2021-10-16T07:23:34Z</time>
      </trkpt>
      <trkpt lat="47.78555" lon="5.07189">
        <ele>335.67</ele>
        <time>2021-10-16T07:23:51Z</time>
      </trkpt>
      <trkpt lat="47.78559" lon="5.07191">
        <ele>335.94</ele>
        <time>2021-10-16T07:24:20Z</time>
      </trkpt>
      <trkpt lat="47.7856" lon="5.0719">
        <ele>335.78</ele>
        <time>2021-10-16T07:24:21Z</time>
      </trkpt>
      <trkpt lat="47.78565" lon="5.07187">
        <ele>335.66</ele>
        <time>2021-10-16T07:24:27Z</time>
      </trkpt>
      <trkpt lat="47.78569" lon="5.07185">
        <ele>335.57</ele>
        <time>2021-10-16T07:24:30Z</time>
      </trkpt>
      <trkpt lat="47.78581" lon="5.0717">
        <ele>336.11</ele>
        <time>2021-10-16T07:24:42Z</time>
      </trkpt>
      <trkpt lat="47.78583" lon="5.07169">
        <ele>336.18</ele>
        <time>2021-10-16T07:24:45Z</time>
      </trkpt>
      <trkpt lat="47.78584" lon="5.07167">
        <ele>336</ele>
        <time>2021-10-16T07:24:47Z</time>
      </trkpt>
      <trkpt lat="47.78597" lon="5.07151">
        <ele>337.13</ele>
        <time>2021-10-16T07:25:04Z</time>
      </trkpt>
      <trkpt lat="47.78606" lon="5.07127">
        <ele>336.83</ele>
        <time>2021-10-16T07:25:23Z</time>
      </trkpt>
      <trkpt lat="47.78613" lon="5.07111">
        <ele>336.87</ele>
        <time>2021-10-16T07:25:34Z</time>
      </trkpt>
      <trkpt lat="47.7863" lon="5.07082">
        <ele>336.61</ele>
        <time>2021-10-16T07:25:51Z</time>
      </trkpt>
      <trkpt lat="47.78636" lon="5.07074">
        <ele>336.44</ele>
        <time>2021-10-16T07:25:58Z</time>
      </trkpt>
      <trkpt lat="47.78644" lon="5.07047">
        <ele>336.15</ele>
        <time>2021-10-16T07:26:16Z</time>
      </trkpt>
      <trkpt lat="47.78653" lon="5.07036">
        <ele>336.2</ele>
        <time>2021-10-16T07:26:24Z</time>
      </trkpt>
      <trkpt lat="47.7866" lon="5.07">
        <ele>337.55</ele>
        <time>2021-10-16T07:26:42Z</time>
      </trkpt>
      <trkpt lat="47.78666" lon="5.06976">
        <ele>338.64</ele>
        <time>2021-10-16T07:26:55Z</time>
      </trkpt>
      <trkpt lat="47.78679" lon="5.06953">
        <ele>338.91</ele>
        <time>2021-10-16T07:27:10Z</time>
      </trkpt>
      <trkpt lat="47.78689" lon="5.06938">
        <ele>338.76</ele>
        <time>2021-10-16T07:27:22Z</time>
      </trkpt>
      <trkpt lat="47.78708" lon="5.06913">
        <ele>338.2</ele>
        <time>2021-10-16T07:27:42Z</time>
      </trkpt>
      <trkpt lat="47.78722" lon="5.06892">
        <ele>337.95</ele>
        <time>2021-10-16T07:27:59Z</time>
      </trkpt>
      <trkpt lat="47.78735" lon="5.06862">
        <ele>337.21</ele>
        <time>2021-10-16T07:28:16Z</time>
      </trkpt>
      <trkpt lat="47.78739" lon="5.06854">
        <ele>336.94</ele>
        <time>2021-10-16T07:28:21Z</time>
      </trkpt>
      <trkpt lat="47.78753" lon="5.06827">
        <ele>336.62</ele>
        <time>2021-10-16T07:28:37Z</time>
      </trkpt>
      <trkpt lat="47.78769" lon="5.06798">
        <ele>336.33</ele>
        <time>2021-10-16T07:28:54Z</time>
      </trkpt>
      <trkpt lat="47.78779" lon="5.06768">
        <ele>336.31</ele>
        <time>2021-10-16T07:29:11Z</time>
      </trkpt>
      <trkpt lat="47.7879" lon="5.06741">
        <ele>336.8</ele>
        <time>2021-10-16T07:29:26Z</time>
      </trkpt>
      <trkpt lat="47.78792" lon="5.06726">
        <ele>336.73</ele>
        <time>2021-10-16T07:29:34Z</time>
      </trkpt>
      <trkpt lat="47.78793" lon="5.06722">
        <ele>336.69</ele>
        <time>2021-10-16T07:29:36Z</time>
      </trkpt>
      <trkpt lat="47.78796" lon="5.06712">
        <ele>336.83</ele>
        <time>2021-10-16T07:29:42Z</time>
      </trkpt>
      <trkpt lat="47.78796" lon="5.06708">
        <ele>336.87</ele>
        <time>2021-10-16T07:29:44Z</time>
      </trkpt>
      <trkpt lat="47.78806" lon="5.06678">
        <ele>337.32</ele>
        <time>2021-10-16T07:30:01Z</time>
      </trkpt>
      <trkpt lat="47.78816" lon="5.0665">
        <ele>337.61</ele>
        <time>2021-10-16T07:30:17Z</time>
      </trkpt>
      <trkpt lat="47.78816" lon="5.06645">
        <ele>337.66</ele>
        <time>2021-10-16T07:30:20Z</time>
      </trkpt>
      <trkpt lat="47.78822" lon="5.06616">
        <ele>338.46</ele>
        <time>2021-10-16T07:30:38Z</time>
      </trkpt>
      <trkpt lat="47.7883" lon="5.06588">
        <ele>340.48</ele>
        <time>2021-10-16T07:30:54Z</time>
      </trkpt>
      <trkpt lat="47.7883" lon="5.06586">
        <ele>340.5</ele>
        <time>2021-10-16T07:30:55Z</time>
      </trkpt>
      <trkpt lat="47.78838" lon="5.06564">
        <ele>343.16</ele>
        <time>2021-10-16T07:31:13Z</time>
      </trkpt>
      <trkpt lat="47.78841" lon="5.06557">
        <ele>343.73</ele>
        <time>2021-10-16T07:31:19Z</time>
      </trkpt>
      <trkpt lat="47.78854" lon="5.06531">
        <ele>346.04</ele>
        <time>2021-10-16T07:31:34Z</time>
      </trkpt>
      <trkpt lat="47.78868" lon="5.06507">
        <ele>347.54</ele>
        <time>2021-10-16T07:31:50Z</time>
      </trkpt>
      <trkpt lat="47.7888" lon="5.06495">
        <ele>349.07</ele>
        <time>2021-10-16T07:32:07Z</time>
      </trkpt>
      <trkpt lat="47.78882" lon="5.06498">
        <ele>349.66</ele>
        <time>2021-10-16T07:32:28Z</time>
      </trkpt>
      <trkpt lat="47.78882" lon="5.06498">
        <ele>349.59</ele>
        <time>2021-10-16T07:33:01Z</time>
      </trkpt>
      <trkpt lat="47.78881" lon="5.06505">
        <ele>349.55</ele>
        <time>2021-10-16T07:33:21Z</time>
      </trkpt>
      <trkpt lat="47.78883" lon="5.06508">
        <ele>349.57</ele>
        <time>2021-10-16T07:34:01Z</time>
      </trkpt>
      <trkpt lat="47.78882" lon="5.06507">
        <ele>349.42</ele>
        <time>2021-10-16T07:34:26Z</time>
      </trkpt>
      <trkpt lat="47.78883" lon="5.06504">
        <ele>349.61</ele>
        <time>2021-10-16T07:34:55Z</time>
      </trkpt>
      <trkpt lat="47.78882" lon="5.06503">
        <ele>349.62</ele>
        <time>2021-10-16T07:35:33Z</time>
      </trkpt>
      <trkpt lat="47.78877" lon="5.06517">
        <ele>349.19</ele>
        <time>2021-10-16T07:35:55Z</time>
      </trkpt>
      <trkpt lat="47.78877" lon="5.06519">
        <ele>349.08</ele>
        <time>2021-10-16T07:35:56Z</time>
      </trkpt>
      <trkpt lat="47.78872" lon="5.06546">
        <ele>349.49</ele>
        <time>2021-10-16T07:36:12Z</time>
      </trkpt>
      <trkpt lat="47.78866" lon="5.06576">
        <ele>349.54</ele>
        <time>2021-10-16T07:36:28Z</time>
      </trkpt>
      <trkpt lat="47.78862" lon="5.06609">
        <ele>349.49</ele>
        <time>2021-10-16T07:36:45Z</time>
      </trkpt>
      <trkpt lat="47.78859" lon="5.0663">
        <ele>349.63</ele>
        <time>2021-10-16T07:36:57Z</time>
      </trkpt>
      <trkpt lat="47.78858" lon="5.06657">
        <ele>349.82</ele>
        <time>2021-10-16T07:37:09Z</time>
      </trkpt>
      <trkpt lat="47.78855" lon="5.06685">
        <ele>350.76</ele>
        <time>2021-10-16T07:37:25Z</time>
      </trkpt>
      <trkpt lat="47.78853" lon="5.06707">
        <ele>351.35</ele>
        <time>2021-10-16T07:37:39Z</time>
      </trkpt>
      <trkpt lat="47.78853" lon="5.06715">
        <ele>351.57</ele>
        <time>2021-10-16T07:37:44Z</time>
      </trkpt>
      <trkpt lat="47.78852" lon="5.0672">
        <ele>351.68</ele>
        <time>2021-10-16T07:37:47Z</time>
      </trkpt>
      <trkpt lat="47.78854" lon="5.06737">
        <ele>352.35</ele>
        <time>2021-10-16T07:37:58Z</time>
      </trkpt>
      <trkpt lat="47.78858" lon="5.06762">
        <ele>353.39</ele>
        <time>2021-10-16T07:38:12Z</time>
      </trkpt>
      <trkpt lat="47.78856" lon="5.06789">
        <ele>353.93</ele>
        <time>2021-10-16T07:38:27Z</time>
      </trkpt>
      <trkpt lat="47.78858" lon="5.06803">
        <ele>354.09</ele>
        <time>2021-10-16T07:38:36Z</time>
      </trkpt>
      <trkpt lat="47.78857" lon="5.06817">
        <ele>354.57</ele>
        <time>2021-10-16T07:38:44Z</time>
      </trkpt>
      <trkpt lat="47.78857" lon="5.06824">
        <ele>354.77</ele>
        <time>2021-10-16T07:38:48Z</time>
      </trkpt>
      <trkpt lat="47.78859" lon="5.06838">
        <ele>355.13</ele>
        <time>2021-10-16T07:38:57Z</time>
      </trkpt>
      <trkpt lat="47.78858" lon="5.06866">
        <ele>355.55</ele>
        <time>2021-10-16T07:39:13Z</time>
      </trkpt>
      <trkpt lat="47.78857" lon="5.06874">
        <ele>355.77</ele>
        <time>2021-10-16T07:39:19Z</time>
      </trkpt>
      <trkpt lat="47.78857" lon="5.0688">
        <ele>356.04</ele>
        <time>2021-10-16T07:39:23Z</time>
      </trkpt>
      <trkpt lat="47.7886" lon="5.06905">
        <ele>356.66</ele>
        <time>2021-10-16T07:39:41Z</time>
      </trkpt>
      <trkpt lat="47.78866" lon="5.06923">
        <ele>358.06</ele>
        <time>2021-10-16T07:39:59Z</time>
      </trkpt>
      <trkpt lat="47.78866" lon="5.06954">
        <ele>358.75</ele>
        <time>2021-10-16T07:40:17Z</time>
      </trkpt>
      <trkpt lat="47.78866" lon="5.06955">
        <ele>358.73</ele>
        <time>2021-10-16T07:40:18Z</time>
      </trkpt>
      <trkpt lat="47.78866" lon="5.06957">
        <ele>358.75</ele>
        <time>2021-10-16T07:40:20Z</time>
      </trkpt>
      <trkpt lat="47.78866" lon="5.0696">
        <ele>359</ele>
        <time>2021-10-16T07:40:22Z</time>
      </trkpt>
      <trkpt lat="47.78867" lon="5.06975">
        <ele>359.4</ele>
        <time>2021-10-16T07:40:31Z</time>
      </trkpt>
      <trkpt lat="47.78871" lon="5.07001">
        <ele>360.5</ele>
        <time>2021-10-16T07:40:47Z</time>
      </trkpt>
      <trkpt lat="47.78874" lon="5.07019">
        <ele>360.94</ele>
        <time>2021-10-16T07:40:58Z</time>
      </trkpt>
      <trkpt lat="47.78875" lon="5.07035">
        <ele>361.32</ele>
        <time>2021-10-16T07:41:07Z</time>
      </trkpt>
      <trkpt lat="47.78878" lon="5.07047">
        <ele>361.82</ele>
        <time>2021-10-16T07:41:16Z</time>
      </trkpt>
      <trkpt lat="47.78879" lon="5.0705">
        <ele>362.18</ele>
        <time>2021-10-16T07:41:18Z</time>
      </trkpt>
      <trkpt lat="47.78885" lon="5.07078">
        <ele>362.99</ele>
        <time>2021-10-16T07:41:35Z</time>
      </trkpt>
      <trkpt lat="47.78892" lon="5.07098">
        <ele>364.18</ele>
        <time>2021-10-16T07:41:52Z</time>
      </trkpt>
      <trkpt lat="47.78894" lon="5.07109">
        <ele>364.68</ele>
        <time>2021-10-16T07:42:01Z</time>
      </trkpt>
      <trkpt lat="47.78896" lon="5.07117">
        <ele>364.89</ele>
        <time>2021-10-16T07:42:08Z</time>
      </trkpt>
      <trkpt lat="47.78898" lon="5.07133">
        <ele>364.9</ele>
        <time>2021-10-16T07:42:18Z</time>
      </trkpt>
      <trkpt lat="47.78899" lon="5.07141">
        <ele>364.76</ele>
        <time>2021-10-16T07:42:22Z</time>
      </trkpt>
      <trkpt lat="47.78904" lon="5.07166">
        <ele>364.77</ele>
        <time>2021-10-16T07:42:39Z</time>
      </trkpt>
      <trkpt lat="47.78907" lon="5.0718">
        <ele>364.65</ele>
        <time>2021-10-16T07:42:48Z</time>
      </trkpt>
      <trkpt lat="47.78922" lon="5.07202">
        <ele>366.19</ele>
        <time>2021-10-16T07:43:06Z</time>
      </trkpt>
      <trkpt lat="47.78928" lon="5.07207">
        <ele>366.85</ele>
        <time>2021-10-16T07:43:14Z</time>
      </trkpt>
      <trkpt lat="47.78932" lon="5.07213">
        <ele>367.3</ele>
        <time>2021-10-16T07:43:20Z</time>
      </trkpt>
      <trkpt lat="47.78941" lon="5.07225">
        <ele>368.27</ele>
        <time>2021-10-16T07:43:35Z</time>
      </trkpt>
      <trkpt lat="47.78942" lon="5.07226">
        <ele>368.57</ele>
        <time>2021-10-16T07:43:37Z</time>
      </trkpt>
      <trkpt lat="47.78945" lon="5.07231">
        <ele>369.26</ele>
        <time>2021-10-16T07:43:43Z</time>
      </trkpt>
      <trkpt lat="47.78948" lon="5.07237">
        <ele>369.76</ele>
        <time>2021-10-16T07:43:47Z</time>
      </trkpt>
      <trkpt lat="47.78955" lon="5.07251">
        <ele>369.94</ele>
        <time>2021-10-16T07:43:55Z</time>
      </trkpt>
      <trkpt lat="47.7896" lon="5.07265">
        <ele>370.6</ele>
        <time>2021-10-16T07:44:10Z</time>
      </trkpt>
      <trkpt lat="47.78965" lon="5.07279">
        <ele>370.63</ele>
        <time>2021-10-16T07:44:43Z</time>
      </trkpt>
      <trkpt lat="47.78965" lon="5.07271">
        <ele>370.56</ele>
        <time>2021-10-16T07:45:28Z</time>
      </trkpt>
      <trkpt lat="47.78962" lon="5.07271">
        <ele>370.67</ele>
        <time>2021-10-16T07:46:07Z</time>
      </trkpt>
      <trkpt lat="47.78961" lon="5.07275">
        <ele>370.37</ele>
        <time>2021-10-16T07:46:45Z</time>
      </trkpt>
      <trkpt lat="47.78962" lon="5.07278">
        <ele>370.37</ele>
        <time>2021-10-16T07:47:16Z</time>
      </trkpt>
      <trkpt lat="47.78967" lon="5.0728">
        <ele>371.1</ele>
        <time>2021-10-16T07:47:33Z</time>
      </trkpt>
      <trkpt lat="47.7897" lon="5.07282">
        <ele>371.14</ele>
        <time>2021-10-16T07:47:36Z</time>
      </trkpt>
      <trkpt lat="47.78983" lon="5.07291">
        <ele>372.8</ele>
        <time>2021-10-16T07:47:51Z</time>
      </trkpt>
      <trkpt lat="47.7899" lon="5.07298">
        <ele>373.83</ele>
        <time>2021-10-16T07:48:02Z</time>
      </trkpt>
      <trkpt lat="47.79004" lon="5.07305">
        <ele>374.72</ele>
        <time>2021-10-16T07:48:16Z</time>
      </trkpt>
      <trkpt lat="47.79009" lon="5.07305">
        <ele>375.11</ele>
        <time>2021-10-16T07:48:24Z</time>
      </trkpt>
      <trkpt lat="47.79014" lon="5.07305">
        <ele>375.35</ele>
        <time>2021-10-16T07:48:28Z</time>
      </trkpt>
      <trkpt lat="47.79026" lon="5.07306">
        <ele>376.58</ele>
        <time>2021-10-16T07:48:39Z</time>
      </trkpt>
      <trkpt lat="47.79033" lon="5.0731">
        <ele>377.05</ele>
        <time>2021-10-16T07:48:45Z</time>
      </trkpt>
      <trkpt lat="47.7904" lon="5.07312">
        <ele>377.17</ele>
        <time>2021-10-16T07:49:00Z</time>
      </trkpt>
      <trkpt lat="47.79049" lon="5.07318">
        <ele>378.71</ele>
        <time>2021-10-16T07:49:16Z</time>
      </trkpt>
      <trkpt lat="47.79064" lon="5.07322">
        <ele>380.34</ele>
        <time>2021-10-16T07:49:31Z</time>
      </trkpt>
      <trkpt lat="47.7908" lon="5.07316">
        <ele>381.75</ele>
        <time>2021-10-16T07:49:45Z</time>
      </trkpt>
      <trkpt lat="47.79081" lon="5.07316">
        <ele>381.67</ele>
        <time>2021-10-16T07:49:46Z</time>
      </trkpt>
      <trkpt lat="47.79083" lon="5.07318">
        <ele>381.93</ele>
        <time>2021-10-16T07:49:50Z</time>
      </trkpt>
      <trkpt lat="47.79092" lon="5.07324">
        <ele>382.89</ele>
        <time>2021-10-16T07:49:59Z</time>
      </trkpt>
      <trkpt lat="47.79099" lon="5.07327">
        <ele>383.38</ele>
        <time>2021-10-16T07:50:04Z</time>
      </trkpt>
      <trkpt lat="47.79103" lon="5.0733">
        <ele>383.54</ele>
        <time>2021-10-16T07:50:07Z</time>
      </trkpt>
      <trkpt lat="47.7911" lon="5.07332">
        <ele>383.93</ele>
        <time>2021-10-16T07:50:14Z</time>
      </trkpt>
      <trkpt lat="47.79127" lon="5.07339">
        <ele>385.78</ele>
        <time>2021-10-16T07:50:30Z</time>
      </trkpt>
      <trkpt lat="47.79131" lon="5.07343">
        <ele>386.14</ele>
        <time>2021-10-16T07:50:34Z</time>
      </trkpt>
      <trkpt lat="47.79142" lon="5.07356">
        <ele>387.37</ele>
        <time>2021-10-16T07:50:47Z</time>
      </trkpt>
      <trkpt lat="47.79144" lon="5.07356">
        <ele>387.48</ele>
        <time>2021-10-16T07:50:49Z</time>
      </trkpt>
      <trkpt lat="47.79148" lon="5.07358">
        <ele>388.17</ele>
        <time>2021-10-16T07:50:54Z</time>
      </trkpt>
      <trkpt lat="47.79157" lon="5.07358">
        <ele>388.55</ele>
        <time>2021-10-16T07:51:00Z</time>
      </trkpt>
      <trkpt lat="47.79176" lon="5.07367">
        <ele>389.66</ele>
        <time>2021-10-16T07:51:13Z</time>
      </trkpt>
      <trkpt lat="47.79184" lon="5.07372">
        <ele>390.2</ele>
        <time>2021-10-16T07:51:19Z</time>
      </trkpt>
      <trkpt lat="47.79188" lon="5.07374">
        <ele>390.24</ele>
        <time>2021-10-16T07:51:23Z</time>
      </trkpt>
      <trkpt lat="47.79202" lon="5.07387">
        <ele>391.28</ele>
        <time>2021-10-16T07:51:39Z</time>
      </trkpt>
      <trkpt lat="47.79206" lon="5.07392">
        <ele>391.52</ele>
        <time>2021-10-16T07:51:43Z</time>
      </trkpt>
      <trkpt lat="47.79215" lon="5.07407">
        <ele>392.77</ele>
        <time>2021-10-16T07:51:58Z</time>
      </trkpt>
      <trkpt lat="47.79227" lon="5.07434">
        <ele>393.81</ele>
        <time>2021-10-16T07:52:13Z</time>
      </trkpt>
      <trkpt lat="47.79229" lon="5.07439">
        <ele>394.62</ele>
        <time>2021-10-16T07:52:17Z</time>
      </trkpt>
      <trkpt lat="47.79226" lon="5.07458">
        <ele>395.53</ele>
        <time>2021-10-16T07:52:33Z</time>
      </trkpt>
      <trkpt lat="47.79222" lon="5.07475">
        <ele>396.52</ele>
        <time>2021-10-16T07:52:48Z</time>
      </trkpt>
      <trkpt lat="47.79217" lon="5.07501">
        <ele>397.95</ele>
        <time>2021-10-16T07:53:04Z</time>
      </trkpt>
      <trkpt lat="47.79217" lon="5.07519">
        <ele>398.67</ele>
        <time>2021-10-16T07:53:19Z</time>
      </trkpt>
      <trkpt lat="47.79218" lon="5.07524">
        <ele>398.99</ele>
        <time>2021-10-16T07:53:43Z</time>
      </trkpt>
      <trkpt lat="47.79221" lon="5.07532">
        <ele>399.25</ele>
        <time>2021-10-16T07:53:58Z</time>
      </trkpt>
      <trkpt lat="47.79221" lon="5.07534">
        <ele>399.55</ele>
        <time>2021-10-16T07:54:14Z</time>
      </trkpt>
      <trkpt lat="47.79224" lon="5.07531">
        <ele>399.59</ele>
        <time>2021-10-16T07:54:32Z</time>
      </trkpt>
      <trkpt lat="47.79223" lon="5.07536">
        <ele>399.52</ele>
        <time>2021-10-16T07:54:51Z</time>
      </trkpt>
      <trkpt lat="47.79221" lon="5.0754">
        <ele>399.39</ele>
        <time>2021-10-16T07:55:02Z</time>
      </trkpt>
      <trkpt lat="47.79221" lon="5.07535">
        <ele>399.05</ele>
        <time>2021-10-16T07:55:06Z</time>
      </trkpt>
      <trkpt lat="47.79234" lon="5.07531">
        <ele>402.14</ele>
        <time>2021-10-16T07:55:22Z</time>
      </trkpt>
      <trkpt lat="47.79236" lon="5.0754">
        <ele>402.42</ele>
        <time>2021-10-16T07:55:38Z</time>
      </trkpt>
      <trkpt lat="47.79228" lon="5.07551">
        <ele>401.87</ele>
        <time>2021-10-16T07:55:51Z</time>
      </trkpt>
      <trkpt lat="47.79221" lon="5.07542">
        <ele>400.39</ele>
        <time>2021-10-16T07:56:16Z</time>
      </trkpt>
      <trkpt lat="47.79222" lon="5.07551">
        <ele>400.27</ele>
        <time>2021-10-16T07:56:36Z</time>
      </trkpt>
      <trkpt lat="47.79225" lon="5.07548">
        <ele>400.85</ele>
        <time>2021-10-16T07:56:59Z</time>
      </trkpt>
      <trkpt lat="47.79227" lon="5.07564">
        <ele>401.07</ele>
        <time>2021-10-16T07:57:16Z</time>
      </trkpt>
      <trkpt lat="47.79232" lon="5.07567">
        <ele>401.66</ele>
        <time>2021-10-16T07:57:21Z</time>
      </trkpt>
      <trkpt lat="47.79235" lon="5.07578">
        <ele>402.04</ele>
        <time>2021-10-16T07:57:27Z</time>
      </trkpt>
      <trkpt lat="47.79235" lon="5.0759">
        <ele>402.66</ele>
        <time>2021-10-16T07:57:37Z</time>
      </trkpt>
      <trkpt lat="47.79239" lon="5.0761">
        <ele>403.57</ele>
        <time>2021-10-16T07:57:54Z</time>
      </trkpt>
      <trkpt lat="47.79242" lon="5.07613">
        <ele>403.69</ele>
        <time>2021-10-16T07:57:57Z</time>
      </trkpt>
      <trkpt lat="47.79245" lon="5.07623">
        <ele>404.23</ele>
        <time>2021-10-16T07:58:05Z</time>
      </trkpt>
      <trkpt lat="47.7925" lon="5.07638">
        <ele>405.14</ele>
        <time>2021-10-16T07:58:21Z</time>
      </trkpt>
      <trkpt lat="47.79251" lon="5.07644">
        <ele>405.42</ele>
        <time>2021-10-16T07:58:27Z</time>
      </trkpt>
      <trkpt lat="47.79253" lon="5.07652">
        <ele>405.86</ele>
        <time>2021-10-16T07:58:33Z</time>
      </trkpt>
      <trkpt lat="47.7926" lon="5.07665">
        <ele>407.26</ele>
        <time>2021-10-16T07:58:49Z</time>
      </trkpt>
      <trkpt lat="47.7927" lon="5.07687">
        <ele>407.91</ele>
        <time>2021-10-16T07:59:05Z</time>
      </trkpt>
      <trkpt lat="47.79278" lon="5.07708">
        <ele>409.37</ele>
        <time>2021-10-16T07:59:19Z</time>
      </trkpt>
      <trkpt lat="47.79288" lon="5.07725">
        <ele>410.53</ele>
        <time>2021-10-16T07:59:35Z</time>
      </trkpt>
      <trkpt lat="47.79296" lon="5.07739">
        <ele>411.32</ele>
        <time>2021-10-16T07:59:48Z</time>
      </trkpt>
      <trkpt lat="47.79302" lon="5.0775">
        <ele>412.57</ele>
        <time>2021-10-16T08:00:04Z</time>
      </trkpt>
      <trkpt lat="47.79308" lon="5.07765">
        <ele>413.75</ele>
        <time>2021-10-16T08:00:20Z</time>
      </trkpt>
      <trkpt lat="47.79317" lon="5.07789">
        <ele>415.24</ele>
        <time>2021-10-16T08:00:36Z</time>
      </trkpt>
      <trkpt lat="47.79324" lon="5.07802">
        <ele>415.54</ele>
        <time>2021-10-16T08:00:45Z</time>
      </trkpt>
      <trkpt lat="47.7933" lon="5.07817">
        <ele>416.66</ele>
        <time>2021-10-16T08:00:58Z</time>
      </trkpt>
      <trkpt lat="47.79343" lon="5.07831">
        <ele>417.5</ele>
        <time>2021-10-16T08:01:12Z</time>
      </trkpt>
      <trkpt lat="47.79348" lon="5.07847">
        <ele>419.07</ele>
        <time>2021-10-16T08:01:28Z</time>
      </trkpt>
      <trkpt lat="47.79356" lon="5.07863">
        <ele>419.82</ele>
        <time>2021-10-16T08:01:41Z</time>
      </trkpt>
      <trkpt lat="47.7936" lon="5.07873">
        <ele>420.5</ele>
        <time>2021-10-16T08:01:49Z</time>
      </trkpt>
      <trkpt lat="47.79361" lon="5.07883">
        <ele>420.8</ele>
        <time>2021-10-16T08:01:57Z</time>
      </trkpt>
      <trkpt lat="47.79364" lon="5.0789">
        <ele>421.14</ele>
        <time>2021-10-16T08:02:02Z</time>
      </trkpt>
      <trkpt lat="47.79367" lon="5.07897">
        <ele>421.86</ele>
        <time>2021-10-16T08:02:09Z</time>
      </trkpt>
      <trkpt lat="47.79372" lon="5.07922">
        <ele>422.97</ele>
        <time>2021-10-16T08:02:27Z</time>
      </trkpt>
      <trkpt lat="47.79374" lon="5.07938">
        <ele>423.72</ele>
        <time>2021-10-16T08:02:39Z</time>
      </trkpt>
      <trkpt lat="47.79377" lon="5.07943">
        <ele>423.98</ele>
        <time>2021-10-16T08:02:45Z</time>
      </trkpt>
      <trkpt lat="47.79379" lon="5.07956">
        <ele>425.07</ele>
        <time>2021-10-16T08:02:59Z</time>
      </trkpt>
      <trkpt lat="47.79382" lon="5.07977">
        <ele>426.85</ele>
        <time>2021-10-16T08:03:19Z</time>
      </trkpt>
      <trkpt lat="47.79383" lon="5.0799">
        <ele>427.66</ele>
        <time>2021-10-16T08:03:27Z</time>
      </trkpt>
      <trkpt lat="47.7939" lon="5.08017">
        <ele>428.92</ele>
        <time>2021-10-16T08:03:45Z</time>
      </trkpt>
      <trkpt lat="47.79391" lon="5.08029">
        <ele>430.21</ele>
        <time>2021-10-16T08:03:57Z</time>
      </trkpt>
      <trkpt lat="47.79394" lon="5.08043">
        <ele>431.68</ele>
        <time>2021-10-16T08:04:12Z</time>
      </trkpt>
      <trkpt lat="47.79396" lon="5.08055">
        <ele>432.38</ele>
        <time>2021-10-16T08:04:26Z</time>
      </trkpt>
      <trkpt lat="47.79401" lon="5.08059">
        <ele>432.51</ele>
        <time>2021-10-16T08:05:18Z</time>
      </trkpt>
      <trkpt lat="47.79401" lon="5.08059">
        <ele>432.83</ele>
        <time>2021-10-16T08:05:57Z</time>
      </trkpt>
      <trkpt lat="47.794" lon="5.08063">
        <ele>432.77</ele>
        <time>2021-10-16T08:06:19Z</time>
      </trkpt>
      <trkpt lat="47.79407" lon="5.08058">
        <ele>432.8</ele>
        <time>2021-10-16T08:06:29Z</time>
      </trkpt>
      <trkpt lat="47.7942" lon="5.0806">
        <ele>433.85</ele>
        <time>2021-10-16T08:06:46Z</time>
      </trkpt>
      <trkpt lat="47.79425" lon="5.08052">
        <ele>433.98</ele>
        <time>2021-10-16T08:07:26Z</time>
      </trkpt>
      <trkpt lat="47.79419" lon="5.08051">
        <ele>432.82</ele>
        <time>2021-10-16T08:07:58Z</time>
      </trkpt>
      <trkpt lat="47.79418" lon="5.08051">
        <ele>432.63</ele>
        <time>2021-10-16T08:08:00Z</time>
      </trkpt>
      <trkpt lat="47.79404" lon="5.08052">
        <ele>433.04</ele>
        <time>2021-10-16T08:08:15Z</time>
      </trkpt>
      <trkpt lat="47.79401" lon="5.08053">
        <ele>433.22</ele>
        <time>2021-10-16T08:08:32Z</time>
      </trkpt>
      <trkpt lat="47.79401" lon="5.08056">
        <ele>433.21</ele>
        <time>2021-10-16T08:09:02Z</time>
      </trkpt>
      <trkpt lat="47.79398" lon="5.08054">
        <ele>433.42</ele>
        <time>2021-10-16T08:09:30Z</time>
      </trkpt>
      <trkpt lat="47.79398" lon="5.08066">
        <ele>433.23</ele>
        <time>2021-10-16T08:10:09Z</time>
      </trkpt>
      <trkpt lat="47.79397" lon="5.08072">
        <ele>433.79</ele>
        <time>2021-10-16T08:10:17Z</time>
      </trkpt>
      <trkpt lat="47.79394" lon="5.08078">
        <ele>434.21</ele>
        <time>2021-10-16T08:10:21Z</time>
      </trkpt>
      <trkpt lat="47.79393" lon="5.08085">
        <ele>434.44</ele>
        <time>2021-10-16T08:10:26Z</time>
      </trkpt>
      <trkpt lat="47.79384" lon="5.08107">
        <ele>435.86</ele>
        <time>2021-10-16T08:10:39Z</time>
      </trkpt>
      <trkpt lat="47.79383" lon="5.08111">
        <ele>436.11</ele>
        <time>2021-10-16T08:10:42Z</time>
      </trkpt>
      <trkpt lat="47.79382" lon="5.08115">
        <ele>436.46</ele>
        <time>2021-10-16T08:10:44Z</time>
      </trkpt>
      <trkpt lat="47.79379" lon="5.0813">
        <ele>437.04</ele>
        <time>2021-10-16T08:10:52Z</time>
      </trkpt>
      <trkpt lat="47.79377" lon="5.0814">
        <ele>437.4</ele>
        <time>2021-10-16T08:10:57Z</time>
      </trkpt>
      <trkpt lat="47.79375" lon="5.08151">
        <ele>437.74</ele>
        <time>2021-10-16T08:11:04Z</time>
      </trkpt>
      <trkpt lat="47.79371" lon="5.08174">
        <ele>438.24</ele>
        <time>2021-10-16T08:11:16Z</time>
      </trkpt>
      <trkpt lat="47.7937" lon="5.08178">
        <ele>438.34</ele>
        <time>2021-10-16T08:11:18Z</time>
      </trkpt>
      <trkpt lat="47.79367" lon="5.08187">
        <ele>438.42</ele>
        <time>2021-10-16T08:11:22Z</time>
      </trkpt>
      <trkpt lat="47.79364" lon="5.08197">
        <ele>438.7</ele>
        <time>2021-10-16T08:11:27Z</time>
      </trkpt>
      <trkpt lat="47.79359" lon="5.08215">
        <ele>439.25</ele>
        <time>2021-10-16T08:11:38Z</time>
      </trkpt>
      <trkpt lat="47.79358" lon="5.0822">
        <ele>439.24</ele>
        <time>2021-10-16T08:11:41Z</time>
      </trkpt>
      <trkpt lat="47.79357" lon="5.08225">
        <ele>439.63</ele>
        <time>2021-10-16T08:11:44Z</time>
      </trkpt>
      <trkpt lat="47.79355" lon="5.08233">
        <ele>439.66</ele>
        <time>2021-10-16T08:11:48Z</time>
      </trkpt>
      <trkpt lat="47.79353" lon="5.0824">
        <ele>440.06</ele>
        <time>2021-10-16T08:11:53Z</time>
      </trkpt>
      <trkpt lat="47.79344" lon="5.08268">
        <ele>441.04</ele>
        <time>2021-10-16T08:12:09Z</time>
      </trkpt>
      <trkpt lat="47.7934" lon="5.08279">
        <ele>441.53</ele>
        <time>2021-10-16T08:12:15Z</time>
      </trkpt>
      <trkpt lat="47.79339" lon="5.08307">
        <ele>442.37</ele>
        <time>2021-10-16T08:12:28Z</time>
      </trkpt>
      <trkpt lat="47.79332" lon="5.08331">
        <ele>443.1</ele>
        <time>2021-10-16T08:12:41Z</time>
      </trkpt>
      <trkpt lat="47.79329" lon="5.08338">
        <ele>443.12</ele>
        <time>2021-10-16T08:12:46Z</time>
      </trkpt>
      <trkpt lat="47.79328" lon="5.08343">
        <ele>443.45</ele>
        <time>2021-10-16T08:12:49Z</time>
      </trkpt>
      <trkpt lat="47.79325" lon="5.08358">
        <ele>443.78</ele>
        <time>2021-10-16T08:12:56Z</time>
      </trkpt>
      <trkpt lat="47.79322" lon="5.08367">
        <ele>444</ele>
        <time>2021-10-16T08:13:00Z</time>
      </trkpt>
      <trkpt lat="47.7932" lon="5.08375">
        <ele>444.13</ele>
        <time>2021-10-16T08:13:04Z</time>
      </trkpt>
      <trkpt lat="47.79318" lon="5.08386">
        <ele>444.29</ele>
        <time>2021-10-16T08:13:10Z</time>
      </trkpt>
      <trkpt lat="47.79316" lon="5.08393">
        <ele>444.43</ele>
        <time>2021-10-16T08:13:14Z</time>
      </trkpt>
      <trkpt lat="47.79313" lon="5.08403">
        <ele>444.9</ele>
        <time>2021-10-16T08:13:20Z</time>
      </trkpt>
      <trkpt lat="47.79308" lon="5.08416">
        <ele>445.24</ele>
        <time>2021-10-16T08:13:28Z</time>
      </trkpt>
      <trkpt lat="47.79303" lon="5.08424">
        <ele>445.3</ele>
        <time>2021-10-16T08:13:32Z</time>
      </trkpt>
      <trkpt lat="47.79299" lon="5.08431">
        <ele>445.68</ele>
        <time>2021-10-16T08:13:36Z</time>
      </trkpt>
      <trkpt lat="47.79296" lon="5.08467">
        <ele>446.16</ele>
        <time>2021-10-16T08:13:54Z</time>
      </trkpt>
      <trkpt lat="47.79288" lon="5.08498">
        <ele>446.75</ele>
        <time>2021-10-16T08:14:11Z</time>
      </trkpt>
      <trkpt lat="47.79277" lon="5.08527">
        <ele>446.76</ele>
        <time>2021-10-16T08:14:27Z</time>
      </trkpt>
      <trkpt lat="47.79277" lon="5.08547">
        <ele>446.48</ele>
        <time>2021-10-16T08:14:37Z</time>
      </trkpt>
      <trkpt lat="47.79275" lon="5.08553">
        <ele>446.52</ele>
        <time>2021-10-16T08:14:41Z</time>
      </trkpt>
      <trkpt lat="47.79274" lon="5.0856">
        <ele>446.66</ele>
        <time>2021-10-16T08:14:45Z</time>
      </trkpt>
      <trkpt lat="47.79272" lon="5.08567">
        <ele>446.61</ele>
        <time>2021-10-16T08:14:48Z</time>
      </trkpt>
      <trkpt lat="47.79263" lon="5.08597">
        <ele>447.24</ele>
        <time>2021-10-16T08:15:04Z</time>
      </trkpt>
      <trkpt lat="47.79257" lon="5.08621">
        <ele>447.68</ele>
        <time>2021-10-16T08:15:17Z</time>
      </trkpt>
      <trkpt lat="47.79249" lon="5.08648">
        <ele>448.47</ele>
        <time>2021-10-16T08:15:32Z</time>
      </trkpt>
      <trkpt lat="47.79245" lon="5.08659">
        <ele>448.49</ele>
        <time>2021-10-16T08:15:37Z</time>
      </trkpt>
      <trkpt lat="47.79239" lon="5.08689">
        <ele>448.89</ele>
        <time>2021-10-16T08:15:53Z</time>
      </trkpt>
      <trkpt lat="47.79234" lon="5.08703">
        <ele>448.79</ele>
        <time>2021-10-16T08:16:01Z</time>
      </trkpt>
      <trkpt lat="47.79228" lon="5.08737">
        <ele>448.33</ele>
        <time>2021-10-16T08:16:17Z</time>
      </trkpt>
      <trkpt lat="47.79223" lon="5.08757">
        <ele>448.02</ele>
        <time>2021-10-16T08:16:27Z</time>
      </trkpt>
      <trkpt lat="47.7922" lon="5.08766">
        <ele>447.77</ele>
        <time>2021-10-16T08:16:32Z</time>
      </trkpt>
      <trkpt lat="47.79211" lon="5.08792">
        <ele>447.72</ele>
        <time>2021-10-16T08:16:47Z</time>
      </trkpt>
      <trkpt lat="47.79205" lon="5.08826">
        <ele>447.57</ele>
        <time>2021-10-16T08:17:03Z</time>
      </trkpt>
      <trkpt lat="47.792" lon="5.08851">
        <ele>447.42</ele>
        <time>2021-10-16T08:17:16Z</time>
      </trkpt>
      <trkpt lat="47.792" lon="5.08856">
        <ele>447.3</ele>
        <time>2021-10-16T08:17:18Z</time>
      </trkpt>
      <trkpt lat="47.79198" lon="5.08864">
        <ele>447.17</ele>
        <time>2021-10-16T08:17:22Z</time>
      </trkpt>
      <trkpt lat="47.79191" lon="5.08886">
        <ele>446.38</ele>
        <time>2021-10-16T08:17:34Z</time>
      </trkpt>
      <trkpt lat="47.79189" lon="5.08899">
        <ele>446.06</ele>
        <time>2021-10-16T08:17:41Z</time>
      </trkpt>
      <trkpt lat="47.7918" lon="5.08931">
        <ele>445.79</ele>
        <time>2021-10-16T08:17:58Z</time>
      </trkpt>
      <trkpt lat="47.79179" lon="5.08936">
        <ele>446.05</ele>
        <time>2021-10-16T08:18:01Z</time>
      </trkpt>
      <trkpt lat="47.79179" lon="5.08938">
        <ele>446.1</ele>
        <time>2021-10-16T08:18:02Z</time>
      </trkpt>
      <trkpt lat="47.79178" lon="5.08943">
        <ele>446.02</ele>
        <time>2021-10-16T08:18:06Z</time>
      </trkpt>
      <trkpt lat="47.79176" lon="5.08954">
        <ele>445.8</ele>
        <time>2021-10-16T08:18:15Z</time>
      </trkpt>
      <trkpt lat="47.79176" lon="5.08956">
        <ele>445.92</ele>
        <time>2021-10-16T08:18:16Z</time>
      </trkpt>
      <trkpt lat="47.79173" lon="5.08961">
        <ele>446.43</ele>
        <time>2021-10-16T08:18:19Z</time>
      </trkpt>
      <trkpt lat="47.79169" lon="5.08977">
        <ele>446.89</ele>
        <time>2021-10-16T08:18:36Z</time>
      </trkpt>
      <trkpt lat="47.79175" lon="5.08972">
        <ele>446.42</ele>
        <time>2021-10-16T08:18:50Z</time>
      </trkpt>
      <trkpt lat="47.79179" lon="5.08958">
        <ele>446.3</ele>
        <time>2021-10-16T08:19:09Z</time>
      </trkpt>
      <trkpt lat="47.7918" lon="5.08951">
        <ele>446.3</ele>
        <time>2021-10-16T08:19:43Z</time>
      </trkpt>
      <trkpt lat="47.79182" lon="5.08949">
        <ele>446.41</ele>
        <time>2021-10-16T08:20:06Z</time>
      </trkpt>
      <trkpt lat="47.79187" lon="5.08944">
        <ele>446.17</ele>
        <time>2021-10-16T08:20:34Z</time>
      </trkpt>
      <trkpt lat="47.7918" lon="5.08951">
        <ele>447.04</ele>
        <time>2021-10-16T08:21:04Z</time>
      </trkpt>
      <trkpt lat="47.79178" lon="5.08951">
        <ele>446.86</ele>
        <time>2021-10-16T08:21:58Z</time>
      </trkpt>
      <trkpt lat="47.79177" lon="5.08946">
        <ele>447.41</ele>
        <time>2021-10-16T08:22:26Z</time>
      </trkpt>
      <trkpt lat="47.79176" lon="5.0894">
        <ele>445.65</ele>
        <time>2021-10-16T08:22:59Z</time>
      </trkpt>
      <trkpt lat="47.79175" lon="5.08935">
        <ele>445.98</ele>
        <time>2021-10-16T08:23:03Z</time>
      </trkpt>
      <trkpt lat="47.79167" lon="5.08919">
        <ele>445.04</ele>
        <time>2021-10-16T08:23:18Z</time>
      </trkpt>
      <trkpt lat="47.79164" lon="5.08917">
        <ele>443.73</ele>
        <time>2021-10-16T08:23:22Z</time>
      </trkpt>
      <trkpt lat="47.79164" lon="5.08916">
        <ele>445.27</ele>
        <time>2021-10-16T08:23:25Z</time>
      </trkpt>
      <trkpt lat="47.79156" lon="5.08912">
        <ele>442.64</ele>
        <time>2021-10-16T08:23:44Z</time>
      </trkpt>
      <trkpt lat="47.79154" lon="5.08901">
        <ele>440.82</ele>
        <time>2021-10-16T08:24:00Z</time>
      </trkpt>
      <trkpt lat="47.79149" lon="5.08889">
        <ele>439.22</ele>
        <time>2021-10-16T08:24:19Z</time>
      </trkpt>
      <trkpt lat="47.79142" lon="5.08879">
        <ele>437.14</ele>
        <time>2021-10-16T08:24:37Z</time>
      </trkpt>
      <trkpt lat="47.79132" lon="5.08863">
        <ele>435.34</ele>
        <time>2021-10-16T08:24:55Z</time>
      </trkpt>
      <trkpt lat="47.79125" lon="5.08855">
        <ele>433.9</ele>
        <time>2021-10-16T08:25:05Z</time>
      </trkpt>
      <trkpt lat="47.79111" lon="5.08842">
        <ele>432.42</ele>
        <time>2021-10-16T08:25:25Z</time>
      </trkpt>
      <trkpt lat="47.79102" lon="5.08836">
        <ele>430.92</ele>
        <time>2021-10-16T08:25:44Z</time>
      </trkpt>
      <trkpt lat="47.79092" lon="5.08827">
        <ele>428.73</ele>
        <time>2021-10-16T08:26:04Z</time>
      </trkpt>
      <trkpt lat="47.79093" lon="5.08819">
        <ele>427.17</ele>
        <time>2021-10-16T08:26:18Z</time>
      </trkpt>
      <trkpt lat="47.79093" lon="5.08815">
        <ele>426.56</ele>
        <time>2021-10-16T08:26:29Z</time>
      </trkpt>
      <trkpt lat="47.79085" lon="5.08801">
        <ele>425.47</ele>
        <time>2021-10-16T08:26:42Z</time>
      </trkpt>
      <trkpt lat="47.7908" lon="5.08788">
        <ele>424.12</ele>
        <time>2021-10-16T08:26:58Z</time>
      </trkpt>
      <trkpt lat="47.79072" lon="5.08781">
        <ele>423.14</ele>
        <time>2021-10-16T08:27:05Z</time>
      </trkpt>
      <trkpt lat="47.79061" lon="5.08764">
        <ele>421.94</ele>
        <time>2021-10-16T08:27:20Z</time>
      </trkpt>
      <trkpt lat="47.79058" lon="5.08761">
        <ele>421.52</ele>
        <time>2021-10-16T08:27:24Z</time>
      </trkpt>
      <trkpt lat="47.79052" lon="5.08751">
        <ele>420.8</ele>
        <time>2021-10-16T08:27:33Z</time>
      </trkpt>
      <trkpt lat="47.79049" lon="5.08745">
        <ele>420.58</ele>
        <time>2021-10-16T08:27:38Z</time>
      </trkpt>
      <trkpt lat="47.79036" lon="5.08726">
        <ele>419.13</ele>
        <time>2021-10-16T08:27:54Z</time>
      </trkpt>
      <trkpt lat="47.79025" lon="5.08717">
        <ele>417.37</ele>
        <time>2021-10-16T08:28:06Z</time>
      </trkpt>
      <trkpt lat="47.79005" lon="5.08697">
        <ele>415.55</ele>
        <time>2021-10-16T08:28:24Z</time>
      </trkpt>
      <trkpt lat="47.79003" lon="5.08693">
        <ele>414.88</ele>
        <time>2021-10-16T08:28:28Z</time>
      </trkpt>
      <trkpt lat="47.78993" lon="5.0868">
        <ele>413.05</ele>
        <time>2021-10-16T08:28:43Z</time>
      </trkpt>
      <trkpt lat="47.78979" lon="5.08669">
        <ele>411.07</ele>
        <time>2021-10-16T08:29:02Z</time>
      </trkpt>
      <trkpt lat="47.7897" lon="5.08663">
        <ele>409.32</ele>
        <time>2021-10-16T08:29:21Z</time>
      </trkpt>
      <trkpt lat="47.78966" lon="5.08657">
        <ele>408.59</ele>
        <time>2021-10-16T08:29:36Z</time>
      </trkpt>
      <trkpt lat="47.78961" lon="5.08656">
        <ele>408.52</ele>
        <time>2021-10-16T08:29:50Z</time>
      </trkpt>
      <trkpt lat="47.78958" lon="5.08652">
        <ele>406.18</ele>
        <time>2021-10-16T08:30:08Z</time>
      </trkpt>
      <trkpt lat="47.78947" lon="5.08639">
        <ele>404.27</ele>
        <time>2021-10-16T08:30:27Z</time>
      </trkpt>
      <trkpt lat="47.78941" lon="5.08629">
        <ele>402.79</ele>
        <time>2021-10-16T08:30:36Z</time>
      </trkpt>
      <trkpt lat="47.78933" lon="5.08613">
        <ele>401.27</ele>
        <time>2021-10-16T08:30:52Z</time>
      </trkpt>
      <trkpt lat="47.78929" lon="5.08604">
        <ele>400.32</ele>
        <time>2021-10-16T08:30:59Z</time>
      </trkpt>
      <trkpt lat="47.7892" lon="5.08587">
        <ele>399.06</ele>
        <time>2021-10-16T08:31:14Z</time>
      </trkpt>
      <trkpt lat="47.78913" lon="5.08561">
        <ele>397.86</ele>
        <time>2021-10-16T08:31:34Z</time>
      </trkpt>
      <trkpt lat="47.78907" lon="5.08552">
        <ele>397.54</ele>
        <time>2021-10-16T08:31:49Z</time>
      </trkpt>
      <trkpt lat="47.789" lon="5.08546">
        <ele>397.18</ele>
        <time>2021-10-16T08:32:10Z</time>
      </trkpt>
      <trkpt lat="47.7889" lon="5.08535">
        <ele>397.04</ele>
        <time>2021-10-16T08:32:37Z</time>
      </trkpt>
      <trkpt lat="47.78895" lon="5.08533">
        <ele>396.72</ele>
        <time>2021-10-16T08:33:02Z</time>
      </trkpt>
      <trkpt lat="47.78897" lon="5.08525">
        <ele>396.5</ele>
        <time>2021-10-16T08:33:07Z</time>
      </trkpt>
      <trkpt lat="47.78903" lon="5.08505">
        <ele>395.06</ele>
        <time>2021-10-16T08:33:25Z</time>
      </trkpt>
      <trkpt lat="47.78906" lon="5.08486">
        <ele>393.66</ele>
        <time>2021-10-16T08:33:39Z</time>
      </trkpt>
      <trkpt lat="47.78903" lon="5.08459">
        <ele>392.31</ele>
        <time>2021-10-16T08:33:56Z</time>
      </trkpt>
      <trkpt lat="47.78903" lon="5.08436">
        <ele>390.95</ele>
        <time>2021-10-16T08:34:15Z</time>
      </trkpt>
      <trkpt lat="47.78898" lon="5.08406">
        <ele>389.52</ele>
        <time>2021-10-16T08:34:35Z</time>
      </trkpt>
      <trkpt lat="47.78896" lon="5.08381">
        <ele>388.78</ele>
        <time>2021-10-16T08:34:53Z</time>
      </trkpt>
      <trkpt lat="47.78895" lon="5.08347">
        <ele>387.89</ele>
        <time>2021-10-16T08:35:14Z</time>
      </trkpt>
      <trkpt lat="47.78892" lon="5.08325">
        <ele>387.27</ele>
        <time>2021-10-16T08:35:31Z</time>
      </trkpt>
      <trkpt lat="47.78892" lon="5.08321">
        <ele>387.29</ele>
        <time>2021-10-16T08:35:33Z</time>
      </trkpt>
      <trkpt lat="47.78889" lon="5.08293">
        <ele>386.91</ele>
        <time>2021-10-16T08:35:50Z</time>
      </trkpt>
      <trkpt lat="47.78886" lon="5.08269">
        <ele>387.03</ele>
        <time>2021-10-16T08:36:09Z</time>
      </trkpt>
      <trkpt lat="47.78887" lon="5.08273">
        <ele>386.51</ele>
        <time>2021-10-16T08:36:25Z</time>
      </trkpt>
      <trkpt lat="47.78885" lon="5.08252">
        <ele>386.1</ele>
        <time>2021-10-16T08:36:37Z</time>
      </trkpt>
      <trkpt lat="47.78884" lon="5.08245">
        <ele>385.77</ele>
        <time>2021-10-16T08:36:41Z</time>
      </trkpt>
      <trkpt lat="47.78883" lon="5.0824">
        <ele>385.69</ele>
        <time>2021-10-16T08:36:44Z</time>
      </trkpt>
      <trkpt lat="47.78886" lon="5.08213">
        <ele>384.98</ele>
        <time>2021-10-16T08:37:02Z</time>
      </trkpt>
      <trkpt lat="47.78888" lon="5.08195">
        <ele>384.61</ele>
        <time>2021-10-16T08:37:15Z</time>
      </trkpt>
      <trkpt lat="47.7889" lon="5.08171">
        <ele>383.74</ele>
        <time>2021-10-16T08:37:30Z</time>
      </trkpt>
      <trkpt lat="47.7889" lon="5.08151">
        <ele>383.17</ele>
        <time>2021-10-16T08:37:44Z</time>
      </trkpt>
      <trkpt lat="47.78893" lon="5.08125">
        <ele>382.65</ele>
        <time>2021-10-16T08:38:04Z</time>
      </trkpt>
      <trkpt lat="47.78891" lon="5.0812">
        <ele>383.37</ele>
        <time>2021-10-16T08:38:20Z</time>
      </trkpt>
      <trkpt lat="47.78885" lon="5.08111">
        <ele>382.53</ele>
        <time>2021-10-16T08:38:34Z</time>
      </trkpt>
      <trkpt lat="47.78885" lon="5.08095">
        <ele>381.34</ele>
        <time>2021-10-16T08:38:50Z</time>
      </trkpt>
      <trkpt lat="47.78889" lon="5.08079">
        <ele>380.58</ele>
        <time>2021-10-16T08:39:06Z</time>
      </trkpt>
      <trkpt lat="47.78892" lon="5.08064">
        <ele>378.83</ele>
        <time>2021-10-16T08:39:18Z</time>
      </trkpt>
      <trkpt lat="47.78893" lon="5.08058">
        <ele>379.71</ele>
        <time>2021-10-16T08:39:23Z</time>
      </trkpt>
      <trkpt lat="47.78893" lon="5.08045">
        <ele>379.36</ele>
        <time>2021-10-16T08:39:28Z</time>
      </trkpt>
      <trkpt lat="47.78893" lon="5.08042">
        <ele>379.54</ele>
        <time>2021-10-16T08:39:30Z</time>
      </trkpt>
      <trkpt lat="47.78895" lon="5.08026">
        <ele>378.95</ele>
        <time>2021-10-16T08:39:41Z</time>
      </trkpt>
      <trkpt lat="47.78902" lon="5.08004">
        <ele>378.42</ele>
        <time>2021-10-16T08:39:57Z</time>
      </trkpt>
      <trkpt lat="47.78902" lon="5.07996">
        <ele>378.1</ele>
        <time>2021-10-16T08:40:06Z</time>
      </trkpt>
      <trkpt lat="47.78901" lon="5.07986">
        <ele>378.21</ele>
        <time>2021-10-16T08:40:24Z</time>
      </trkpt>
      <trkpt lat="47.78901" lon="5.07986">
        <ele>378.37</ele>
        <time>2021-10-16T08:40:39Z</time>
      </trkpt>
      <trkpt lat="47.78902" lon="5.07988">
        <ele>378.35</ele>
        <time>2021-10-16T08:40:43Z</time>
      </trkpt>
      <trkpt lat="47.789" lon="5.07982">
        <ele>378.01</ele>
        <time>2021-10-16T08:41:00Z</time>
      </trkpt>
      <trkpt lat="47.78909" lon="5.07968">
        <ele>377.44</ele>
        <time>2021-10-16T08:41:17Z</time>
      </trkpt>
      <trkpt lat="47.78923" lon="5.07945">
        <ele>377.15</ele>
        <time>2021-10-16T08:41:33Z</time>
      </trkpt>
      <trkpt lat="47.78936" lon="5.0793">
        <ele>376.98</ele>
        <time>2021-10-16T08:41:48Z</time>
      </trkpt>
      <trkpt lat="47.78936" lon="5.07925">
        <ele>376.82</ele>
        <time>2021-10-16T08:41:55Z</time>
      </trkpt>
      <trkpt lat="47.78936" lon="5.07924">
        <ele>376.84</ele>
        <time>2021-10-16T08:41:57Z</time>
      </trkpt>
      <trkpt lat="47.78945" lon="5.07913">
        <ele>376.83</ele>
        <time>2021-10-16T08:42:08Z</time>
      </trkpt>
      <trkpt lat="47.78947" lon="5.07908">
        <ele>376.82</ele>
        <time>2021-10-16T08:42:12Z</time>
      </trkpt>
      <trkpt lat="47.78952" lon="5.07897">
        <ele>377.12</ele>
        <time>2021-10-16T08:42:20Z</time>
      </trkpt>
      <trkpt lat="47.7897" lon="5.0788">
        <ele>378.05</ele>
        <time>2021-10-16T08:42:40Z</time>
      </trkpt>
      <trkpt lat="47.78976" lon="5.07871">
        <ele>378.37</ele>
        <time>2021-10-16T08:42:50Z</time>
      </trkpt>
      <trkpt lat="47.7899" lon="5.0786">
        <ele>378.96</ele>
        <time>2021-10-16T08:43:03Z</time>
      </trkpt>
      <trkpt lat="47.79002" lon="5.07852">
        <ele>379.56</ele>
        <time>2021-10-16T08:43:19Z</time>
      </trkpt>
      <trkpt lat="47.79017" lon="5.07845">
        <ele>380.6</ele>
        <time>2021-10-16T08:43:32Z</time>
      </trkpt>
      <trkpt lat="47.79028" lon="5.07842">
        <ele>380.91</ele>
        <time>2021-10-16T08:43:43Z</time>
      </trkpt>
      <trkpt lat="47.79037" lon="5.07839">
        <ele>381.35</ele>
        <time>2021-10-16T08:43:50Z</time>
      </trkpt>
      <trkpt lat="47.79039" lon="5.07838">
        <ele>381.46</ele>
        <time>2021-10-16T08:43:52Z</time>
      </trkpt>
      <trkpt lat="47.79046" lon="5.07837">
        <ele>381.89</ele>
        <time>2021-10-16T08:43:58Z</time>
      </trkpt>
      <trkpt lat="47.79049" lon="5.07837">
        <ele>382.02</ele>
        <time>2021-10-16T08:44:00Z</time>
      </trkpt>
      <trkpt lat="47.79056" lon="5.07838">
        <ele>382.4</ele>
        <time>2021-10-16T08:44:05Z</time>
      </trkpt>
      <trkpt lat="47.79061" lon="5.07838">
        <ele>382.43</ele>
        <time>2021-10-16T08:44:10Z</time>
      </trkpt>
      <trkpt lat="47.79068" lon="5.07839">
        <ele>382.9</ele>
        <time>2021-10-16T08:44:18Z</time>
      </trkpt>
      <trkpt lat="47.79072" lon="5.07841">
        <ele>383.15</ele>
        <time>2021-10-16T08:44:21Z</time>
      </trkpt>
      <trkpt lat="47.79079" lon="5.07846">
        <ele>383.74</ele>
        <time>2021-10-16T08:44:29Z</time>
      </trkpt>
      <trkpt lat="47.79089" lon="5.07846">
        <ele>384.08</ele>
        <time>2021-10-16T08:44:41Z</time>
      </trkpt>
      <trkpt lat="47.79091" lon="5.07841">
        <ele>384.39</ele>
        <time>2021-10-16T08:44:44Z</time>
      </trkpt>
      <trkpt lat="47.79103" lon="5.07828">
        <ele>384.47</ele>
        <time>2021-10-16T08:45:01Z</time>
      </trkpt>
      <trkpt lat="47.79119" lon="5.07798">
        <ele>383.51</ele>
        <time>2021-10-16T08:45:18Z</time>
      </trkpt>
      <trkpt lat="47.79125" lon="5.07782">
        <ele>382.94</ele>
        <time>2021-10-16T08:45:32Z</time>
      </trkpt>
      <trkpt lat="47.79136" lon="5.07765">
        <ele>382.2</ele>
        <time>2021-10-16T08:45:48Z</time>
      </trkpt>
      <trkpt lat="47.79141" lon="5.07738">
        <ele>381.57</ele>
        <time>2021-10-16T08:46:07Z</time>
      </trkpt>
      <trkpt lat="47.79143" lon="5.07719">
        <ele>381.62</ele>
        <time>2021-10-16T08:46:23Z</time>
      </trkpt>
      <trkpt lat="47.79143" lon="5.07702">
        <ele>381.81</ele>
        <time>2021-10-16T08:46:34Z</time>
      </trkpt>
      <trkpt lat="47.79137" lon="5.07675">
        <ele>382.85</ele>
        <time>2021-10-16T08:46:53Z</time>
      </trkpt>
      <trkpt lat="47.79138" lon="5.07674">
        <ele>382.43</ele>
        <time>2021-10-16T08:46:54Z</time>
      </trkpt>
      <trkpt lat="47.79138" lon="5.07652">
        <ele>383</ele>
        <time>2021-10-16T08:47:09Z</time>
      </trkpt>
      <trkpt lat="47.79134" lon="5.07639">
        <ele>382.72</ele>
        <time>2021-10-16T08:47:32Z</time>
      </trkpt>
      <trkpt lat="47.79135" lon="5.0763">
        <ele>382.81</ele>
        <time>2021-10-16T08:47:50Z</time>
      </trkpt>
      <trkpt lat="47.79134" lon="5.07622">
        <ele>383.17</ele>
        <time>2021-10-16T08:48:00Z</time>
      </trkpt>
      <trkpt lat="47.79134" lon="5.07616">
        <ele>383</ele>
        <time>2021-10-16T08:48:04Z</time>
      </trkpt>
      <trkpt lat="47.79134" lon="5.07608">
        <ele>383.21</ele>
        <time>2021-10-16T08:48:09Z</time>
      </trkpt>
      <trkpt lat="47.79133" lon="5.07587">
        <ele>382.5</ele>
        <time>2021-10-16T08:48:27Z</time>
      </trkpt>
      <trkpt lat="47.79134" lon="5.07569">
        <ele>382.57</ele>
        <time>2021-10-16T08:48:34Z</time>
      </trkpt>
      <trkpt lat="47.79135" lon="5.0756">
        <ele>382.48</ele>
        <time>2021-10-16T08:48:38Z</time>
      </trkpt>
      <trkpt lat="47.79134" lon="5.07532">
        <ele>381.83</ele>
        <time>2021-10-16T08:48:55Z</time>
      </trkpt>
      <trkpt lat="47.79135" lon="5.07527">
        <ele>381.89</ele>
        <time>2021-10-16T08:48:58Z</time>
      </trkpt>
      <trkpt lat="47.79137" lon="5.07522">
        <ele>381.97</ele>
        <time>2021-10-16T08:49:01Z</time>
      </trkpt>
      <trkpt lat="47.79135" lon="5.07511">
        <ele>381.76</ele>
        <time>2021-10-16T08:49:06Z</time>
      </trkpt>
      <trkpt lat="47.79136" lon="5.07505">
        <ele>381.54</ele>
        <time>2021-10-16T08:49:10Z</time>
      </trkpt>
      <trkpt lat="47.79143" lon="5.07487">
        <ele>381.24</ele>
        <time>2021-10-16T08:49:26Z</time>
      </trkpt>
      <trkpt lat="47.79144" lon="5.07479">
        <ele>381.19</ele>
        <time>2021-10-16T08:49:32Z</time>
      </trkpt>
      <trkpt lat="47.79149" lon="5.07468">
        <ele>380.62</ele>
        <time>2021-10-16T08:49:56Z</time>
      </trkpt>
      <trkpt lat="47.79152" lon="5.07488">
        <ele>380.77</ele>
        <time>2021-10-16T08:50:18Z</time>
      </trkpt>
      <trkpt lat="47.79147" lon="5.07498">
        <ele>380.98</ele>
        <time>2021-10-16T08:50:47Z</time>
      </trkpt>
      <trkpt lat="47.79139" lon="5.07495">
        <ele>381.09</ele>
        <time>2021-10-16T08:51:06Z</time>
      </trkpt>
      <trkpt lat="47.79139" lon="5.07475">
        <ele>380.8</ele>
        <time>2021-10-16T08:51:34Z</time>
      </trkpt>
      <trkpt lat="47.79139" lon="5.07463">
        <ele>377.53</ele>
        <time>2021-10-16T08:51:54Z</time>
      </trkpt>
      <trkpt lat="47.79139" lon="5.07463">
        <ele>381.91</ele>
        <time>2021-10-16T08:51:55Z</time>
      </trkpt>
      <trkpt lat="47.79139" lon="5.07453">
        <ele>380.4</ele>
        <time>2021-10-16T08:52:29Z</time>
      </trkpt>
      <trkpt lat="47.79142" lon="5.07456">
        <ele>381.07</ele>
        <time>2021-10-16T08:52:54Z</time>
      </trkpt>
      <trkpt lat="47.79141" lon="5.07452">
        <ele>380.99</ele>
        <time>2021-10-16T08:53:15Z</time>
      </trkpt>
      <trkpt lat="47.79138" lon="5.07456">
        <ele>381.39</ele>
        <time>2021-10-16T08:53:59Z</time>
      </trkpt>
      <trkpt lat="47.79135" lon="5.07451">
        <ele>381</ele>
        <time>2021-10-16T08:54:23Z</time>
      </trkpt>
      <trkpt lat="47.79136" lon="5.07452">
        <ele>381.16</ele>
        <time>2021-10-16T08:54:58Z</time>
      </trkpt>
      <trkpt lat="47.79141" lon="5.07451">
        <ele>381.44</ele>
        <time>2021-10-16T08:55:52Z</time>
      </trkpt>
      <trkpt lat="47.79143" lon="5.07444">
        <ele>380.91</ele>
        <time>2021-10-16T08:56:14Z</time>
      </trkpt>
      <trkpt lat="47.79139" lon="5.07423">
        <ele>381.3</ele>
        <time>2021-10-16T08:56:31Z</time>
      </trkpt>
      <trkpt lat="47.79135" lon="5.07406">
        <ele>381.2</ele>
        <time>2021-10-16T08:56:45Z</time>
      </trkpt>
      <trkpt lat="47.79125" lon="5.07396">
        <ele>381.38</ele>
        <time>2021-10-16T08:56:53Z</time>
      </trkpt>
      <trkpt lat="47.79118" lon="5.07385">
        <ele>380.71</ele>
        <time>2021-10-16T08:57:10Z</time>
      </trkpt>
      <trkpt lat="47.79115" lon="5.07384">
        <ele>380.71</ele>
        <time>2021-10-16T08:57:12Z</time>
      </trkpt>
      <trkpt lat="47.7911" lon="5.07378">
        <ele>380.48</ele>
        <time>2021-10-16T08:57:20Z</time>
      </trkpt>
      <trkpt lat="47.79095" lon="5.07358">
        <ele>380.27</ele>
        <time>2021-10-16T08:57:37Z</time>
      </trkpt>
      <trkpt lat="47.7908" lon="5.07345">
        <ele>380.41</ele>
        <time>2021-10-16T08:57:51Z</time>
      </trkpt>
      <trkpt lat="47.79063" lon="5.07337">
        <ele>381.02</ele>
        <time>2021-10-16T08:58:06Z</time>
      </trkpt>
      <trkpt lat="47.79045" lon="5.07334">
        <ele>381.51</ele>
        <time>2021-10-16T08:58:22Z</time>
      </trkpt>
      <trkpt lat="47.79033" lon="5.07328">
        <ele>382.47</ele>
        <time>2021-10-16T08:58:40Z</time>
      </trkpt>
      <trkpt lat="47.79022" lon="5.07324">
        <ele>383.14</ele>
        <time>2021-10-16T08:58:56Z</time>
      </trkpt>
      <trkpt lat="47.79019" lon="5.07326">
        <ele>382.82</ele>
        <time>2021-10-16T08:59:28Z</time>
      </trkpt>
      <trkpt lat="47.79009" lon="5.07313">
        <ele>383.26</ele>
        <time>2021-10-16T08:59:44Z</time>
      </trkpt>
      <trkpt lat="47.78994" lon="5.07299">
        <ele>383.56</ele>
        <time>2021-10-16T09:00:01Z</time>
      </trkpt>
      <trkpt lat="47.78977" lon="5.07286">
        <ele>383.72</ele>
        <time>2021-10-16T09:00:21Z</time>
      </trkpt>
      <trkpt lat="47.78973" lon="5.07277">
        <ele>383.72</ele>
        <time>2021-10-16T09:00:42Z</time>
      </trkpt>
      <trkpt lat="47.78972" lon="5.07277">
        <ele>383.51</ele>
        <time>2021-10-16T09:01:13Z</time>
      </trkpt>
      <trkpt lat="47.78969" lon="5.07277">
        <ele>383.52</ele>
        <time>2021-10-16T09:01:36Z</time>
      </trkpt>
      <trkpt lat="47.78971" lon="5.07275">
        <ele>383.49</ele>
        <time>2021-10-16T09:01:53Z</time>
      </trkpt>
      <trkpt lat="47.78976" lon="5.07273">
        <ele>383.39</ele>
        <time>2021-10-16T09:02:14Z</time>
      </trkpt>
      <trkpt lat="47.78965" lon="5.0727">
        <ele>382.66</ele>
        <time>2021-10-16T09:02:42Z</time>
      </trkpt>
      <trkpt lat="47.78964" lon="5.07267">
        <ele>382.71</ele>
        <time>2021-10-16T09:02:44Z</time>
      </trkpt>
      <trkpt lat="47.7895" lon="5.07248">
        <ele>381.39</ele>
        <time>2021-10-16T09:03:01Z</time>
      </trkpt>
      <trkpt lat="47.78946" lon="5.07245">
        <ele>381.41</ele>
        <time>2021-10-16T09:03:03Z</time>
      </trkpt>
      <trkpt lat="47.7893" lon="5.07223">
        <ele>379.52</ele>
        <time>2021-10-16T09:03:22Z</time>
      </trkpt>
      <trkpt lat="47.78927" lon="5.0722">
        <ele>379.01</ele>
        <time>2021-10-16T09:03:25Z</time>
      </trkpt>
      <trkpt lat="47.78919" lon="5.07209">
        <ele>377.75</ele>
        <time>2021-10-16T09:03:34Z</time>
      </trkpt>
      <trkpt lat="47.78915" lon="5.07204">
        <ele>377.64</ele>
        <time>2021-10-16T09:03:37Z</time>
      </trkpt>
      <trkpt lat="47.78907" lon="5.07187">
        <ele>376.4</ele>
        <time>2021-10-16T09:03:49Z</time>
      </trkpt>
      <trkpt lat="47.78904" lon="5.0717">
        <ele>376.1</ele>
        <time>2021-10-16T09:03:59Z</time>
      </trkpt>
      <trkpt lat="47.78905" lon="5.07164">
        <ele>376.19</ele>
        <time>2021-10-16T09:04:02Z</time>
      </trkpt>
      <trkpt lat="47.78903" lon="5.07157">
        <ele>376.28</ele>
        <time>2021-10-16T09:04:06Z</time>
      </trkpt>
      <trkpt lat="47.78898" lon="5.07134">
        <ele>376.02</ele>
        <time>2021-10-16T09:04:19Z</time>
      </trkpt>
      <trkpt lat="47.78898" lon="5.07126">
        <ele>376.23</ele>
        <time>2021-10-16T09:04:23Z</time>
      </trkpt>
      <trkpt lat="47.78898" lon="5.07121">
        <ele>375.96</ele>
        <time>2021-10-16T09:04:26Z</time>
      </trkpt>
      <trkpt lat="47.78895" lon="5.07093">
        <ele>375.05</ele>
        <time>2021-10-16T09:04:42Z</time>
      </trkpt>
      <trkpt lat="47.78893" lon="5.0709">
        <ele>374.89</ele>
        <time>2021-10-16T09:04:44Z</time>
      </trkpt>
      <trkpt lat="47.78889" lon="5.07075">
        <ele>374.07</ele>
        <time>2021-10-16T09:04:55Z</time>
      </trkpt>
      <trkpt lat="47.78886" lon="5.07067">
        <ele>373.99</ele>
        <time>2021-10-16T09:05:00Z</time>
      </trkpt>
      <trkpt lat="47.78883" lon="5.07057">
        <ele>373.44</ele>
        <time>2021-10-16T09:05:07Z</time>
      </trkpt>
      <trkpt lat="47.78881" lon="5.07052">
        <ele>372.95</ele>
        <time>2021-10-16T09:05:10Z</time>
      </trkpt>
      <trkpt lat="47.7888" lon="5.07042">
        <ele>372.63</ele>
        <time>2021-10-16T09:05:16Z</time>
      </trkpt>
      <trkpt lat="47.78877" lon="5.07028">
        <ele>371.92</ele>
        <time>2021-10-16T09:05:24Z</time>
      </trkpt>
      <trkpt lat="47.78873" lon="5.07008">
        <ele>371.3</ele>
        <time>2021-10-16T09:05:36Z</time>
      </trkpt>
      <trkpt lat="47.78871" lon="5.07001">
        <ele>370.94</ele>
        <time>2021-10-16T09:05:41Z</time>
      </trkpt>
      <trkpt lat="47.7887" lon="5.06992">
        <ele>370.81</ele>
        <time>2021-10-16T09:05:46Z</time>
      </trkpt>
      <trkpt lat="47.7887" lon="5.06984">
        <ele>370.4</ele>
        <time>2021-10-16T09:05:51Z</time>
      </trkpt>
      <trkpt lat="47.78869" lon="5.06976">
        <ele>370.02</ele>
        <time>2021-10-16T09:05:56Z</time>
      </trkpt>
      <trkpt lat="47.7887" lon="5.06968">
        <ele>369.68</ele>
        <time>2021-10-16T09:06:01Z</time>
      </trkpt>
      <trkpt lat="47.78868" lon="5.06963">
        <ele>369.19</ele>
        <time>2021-10-16T09:06:05Z</time>
      </trkpt>
      <trkpt lat="47.78868" lon="5.06957">
        <ele>369.01</ele>
        <time>2021-10-16T09:06:08Z</time>
      </trkpt>
      <trkpt lat="47.78866" lon="5.06932">
        <ele>368.06</ele>
        <time>2021-10-16T09:06:23Z</time>
      </trkpt>
      <trkpt lat="47.78866" lon="5.06928">
        <ele>368.25</ele>
        <time>2021-10-16T09:06:26Z</time>
      </trkpt>
      <trkpt lat="47.78865" lon="5.06921">
        <ele>367.94</ele>
        <time>2021-10-16T09:06:30Z</time>
      </trkpt>
      <trkpt lat="47.78859" lon="5.06904">
        <ele>366.59</ele>
        <time>2021-10-16T09:06:44Z</time>
      </trkpt>
      <trkpt lat="47.78859" lon="5.06903">
        <ele>366.23</ele>
        <time>2021-10-16T09:06:45Z</time>
      </trkpt>
      <trkpt lat="47.78858" lon="5.06898">
        <ele>366.1</ele>
        <time>2021-10-16T09:06:48Z</time>
      </trkpt>
      <trkpt lat="47.78859" lon="5.0687">
        <ele>365.51</ele>
        <time>2021-10-16T09:07:04Z</time>
      </trkpt>
      <trkpt lat="47.78859" lon="5.06853">
        <ele>364.9</ele>
        <time>2021-10-16T09:07:13Z</time>
      </trkpt>
      <trkpt lat="47.78859" lon="5.06848">
        <ele>364.64</ele>
        <time>2021-10-16T09:07:16Z</time>
      </trkpt>
      <trkpt lat="47.78859" lon="5.0683">
        <ele>364.67</ele>
        <time>2021-10-16T09:07:26Z</time>
      </trkpt>
      <trkpt lat="47.7886" lon="5.06811">
        <ele>363.96</ele>
        <time>2021-10-16T09:07:37Z</time>
      </trkpt>
      <trkpt lat="47.78859" lon="5.06787">
        <ele>362.95</ele>
        <time>2021-10-16T09:07:52Z</time>
      </trkpt>
      <trkpt lat="47.78857" lon="5.06756">
        <ele>362.21</ele>
        <time>2021-10-16T09:08:08Z</time>
      </trkpt>
      <trkpt lat="47.78855" lon="5.06731">
        <ele>361.25</ele>
        <time>2021-10-16T09:08:22Z</time>
      </trkpt>
      <trkpt lat="47.78855" lon="5.06707">
        <ele>360.75</ele>
        <time>2021-10-16T09:08:36Z</time>
      </trkpt>
      <trkpt lat="47.78854" lon="5.067">
        <ele>360.62</ele>
        <time>2021-10-16T09:08:40Z</time>
      </trkpt>
      <trkpt lat="47.78855" lon="5.06679">
        <ele>359.93</ele>
        <time>2021-10-16T09:08:52Z</time>
      </trkpt>
      <trkpt lat="47.78858" lon="5.06667">
        <ele>359.73</ele>
        <time>2021-10-16T09:08:58Z</time>
      </trkpt>
      <trkpt lat="47.7886" lon="5.06634">
        <ele>359.37</ele>
        <time>2021-10-16T09:09:16Z</time>
      </trkpt>
      <trkpt lat="47.78862" lon="5.066">
        <ele>359.05</ele>
        <time>2021-10-16T09:09:35Z</time>
      </trkpt>
      <trkpt lat="47.78863" lon="5.06596">
        <ele>358.75</ele>
        <time>2021-10-16T09:09:38Z</time>
      </trkpt>
      <trkpt lat="47.78866" lon="5.06584">
        <ele>359.01</ele>
        <time>2021-10-16T09:09:45Z</time>
      </trkpt>
      <trkpt lat="47.78869" lon="5.06564">
        <ele>358.86</ele>
        <time>2021-10-16T09:09:56Z</time>
      </trkpt>
      <trkpt lat="47.78872" lon="5.06553">
        <ele>358.87</ele>
        <time>2021-10-16T09:10:02Z</time>
      </trkpt>
      <trkpt lat="47.78873" lon="5.06546">
        <ele>358.95</ele>
        <time>2021-10-16T09:10:06Z</time>
      </trkpt>
      <trkpt lat="47.78874" lon="5.06538">
        <ele>358.86</ele>
        <time>2021-10-16T09:10:11Z</time>
      </trkpt>
      <trkpt lat="47.78875" lon="5.06523">
        <ele>358.81</ele>
        <time>2021-10-16T09:10:21Z</time>
      </trkpt>
      <trkpt lat="47.78877" lon="5.06516">
        <ele>358.83</ele>
        <time>2021-10-16T09:10:27Z</time>
      </trkpt>
      <trkpt lat="47.78883" lon="5.06486">
        <ele>358.41</ele>
        <time>2021-10-16T09:10:44Z</time>
      </trkpt>
      <trkpt lat="47.7888" lon="5.06487">
        <ele>357.82</ele>
        <time>2021-10-16T09:10:50Z</time>
      </trkpt>
      <trkpt lat="47.78879" lon="5.06488">
        <ele>357.66</ele>
        <time>2021-10-16T09:10:52Z</time>
      </trkpt>
      <trkpt lat="47.78875" lon="5.06494">
        <ele>357.17</ele>
        <time>2021-10-16T09:10:58Z</time>
      </trkpt>
      <trkpt lat="47.78871" lon="5.06497">
        <ele>356.78</ele>
        <time>2021-10-16T09:11:02Z</time>
      </trkpt>
      <trkpt lat="47.7887" lon="5.06502">
        <ele>356.71</ele>
        <time>2021-10-16T09:11:18Z</time>
      </trkpt>
      <trkpt lat="47.78865" lon="5.06513">
        <ele>356.09</ele>
        <time>2021-10-16T09:11:26Z</time>
      </trkpt>
      <trkpt lat="47.78851" lon="5.06537">
        <ele>354.07</ele>
        <time>2021-10-16T09:11:43Z</time>
      </trkpt>
      <trkpt lat="47.78848" lon="5.06542">
        <ele>353.53</ele>
        <time>2021-10-16T09:11:48Z</time>
      </trkpt>
      <trkpt lat="47.78847" lon="5.06545">
        <ele>353.1</ele>
        <time>2021-10-16T09:11:50Z</time>
      </trkpt>
      <trkpt lat="47.78842" lon="5.06561">
        <ele>351.55</ele>
        <time>2021-10-16T09:12:08Z</time>
      </trkpt>
      <trkpt lat="47.78839" lon="5.06567">
        <ele>351.2</ele>
        <time>2021-10-16T09:12:12Z</time>
      </trkpt>
      <trkpt lat="47.78837" lon="5.06571">
        <ele>350.66</ele>
        <time>2021-10-16T09:12:15Z</time>
      </trkpt>
      <trkpt lat="47.78827" lon="5.0659">
        <ele>348.46</ele>
        <time>2021-10-16T09:12:28Z</time>
      </trkpt>
      <trkpt lat="47.78818" lon="5.06625">
        <ele>347.12</ele>
        <time>2021-10-16T09:12:45Z</time>
      </trkpt>
      <trkpt lat="47.78811" lon="5.06656">
        <ele>346.55</ele>
        <time>2021-10-16T09:13:02Z</time>
      </trkpt>
      <trkpt lat="47.78804" lon="5.06671">
        <ele>346.56</ele>
        <time>2021-10-16T09:13:12Z</time>
      </trkpt>
      <trkpt lat="47.78802" lon="5.06682">
        <ele>346.39</ele>
        <time>2021-10-16T09:13:18Z</time>
      </trkpt>
      <trkpt lat="47.78792" lon="5.06708">
        <ele>346.19</ele>
        <time>2021-10-16T09:13:34Z</time>
      </trkpt>
      <trkpt lat="47.78783" lon="5.06737">
        <ele>345.91</ele>
        <time>2021-10-16T09:13:50Z</time>
      </trkpt>
      <trkpt lat="47.78777" lon="5.06752">
        <ele>345.62</ele>
        <time>2021-10-16T09:13:59Z</time>
      </trkpt>
      <trkpt lat="47.78767" lon="5.06778">
        <ele>345.81</ele>
        <time>2021-10-16T09:14:15Z</time>
      </trkpt>
      <trkpt lat="47.78763" lon="5.06793">
        <ele>345.73</ele>
        <time>2021-10-16T09:14:23Z</time>
      </trkpt>
      <trkpt lat="47.78751" lon="5.06826">
        <ele>346.03</ele>
        <time>2021-10-16T09:14:41Z</time>
      </trkpt>
      <trkpt lat="47.78741" lon="5.06848">
        <ele>346.47</ele>
        <time>2021-10-16T09:14:56Z</time>
      </trkpt>
      <trkpt lat="47.78731" lon="5.06872">
        <ele>347</ele>
        <time>2021-10-16T09:15:11Z</time>
      </trkpt>
      <trkpt lat="47.7873" lon="5.06875">
        <ele>347.1</ele>
        <time>2021-10-16T09:15:13Z</time>
      </trkpt>
      <trkpt lat="47.78719" lon="5.06897">
        <ele>347.53</ele>
        <time>2021-10-16T09:15:28Z</time>
      </trkpt>
      <trkpt lat="47.78717" lon="5.06902">
        <ele>347.42</ele>
        <time>2021-10-16T09:15:32Z</time>
      </trkpt>
      <trkpt lat="47.787" lon="5.06917">
        <ele>347.28</ele>
        <time>2021-10-16T09:15:48Z</time>
      </trkpt>
      <trkpt lat="47.78695" lon="5.06923">
        <ele>347.66</ele>
        <time>2021-10-16T09:15:54Z</time>
      </trkpt>
      <trkpt lat="47.78689" lon="5.06931">
        <ele>347.63</ele>
        <time>2021-10-16T09:16:00Z</time>
      </trkpt>
      <trkpt lat="47.78687" lon="5.06935">
        <ele>347.7</ele>
        <time>2021-10-16T09:16:03Z</time>
      </trkpt>
      <trkpt lat="47.78683" lon="5.0694">
        <ele>347.65</ele>
        <time>2021-10-16T09:16:07Z</time>
      </trkpt>
      <trkpt lat="47.78669" lon="5.0696">
        <ele>347.61</ele>
        <time>2021-10-16T09:16:24Z</time>
      </trkpt>
      <trkpt lat="47.78657" lon="5.06984">
        <ele>347.13</ele>
        <time>2021-10-16T09:16:40Z</time>
      </trkpt>
      <trkpt lat="47.78656" lon="5.06985">
        <ele>346.75</ele>
        <time>2021-10-16T09:16:41Z</time>
      </trkpt>
      <trkpt lat="47.78655" lon="5.07009">
        <ele>345.69</ele>
        <time>2021-10-16T09:16:56Z</time>
      </trkpt>
      <trkpt lat="47.78655" lon="5.07014">
        <ele>345.66</ele>
        <time>2021-10-16T09:16:59Z</time>
      </trkpt>
      <trkpt lat="47.78651" lon="5.07038">
        <ele>345.12</ele>
        <time>2021-10-16T09:17:17Z</time>
      </trkpt>
      <trkpt lat="47.78646" lon="5.07043">
        <ele>345.49</ele>
        <time>2021-10-16T09:17:22Z</time>
      </trkpt>
      <trkpt lat="47.78644" lon="5.07045">
        <ele>345.35</ele>
        <time>2021-10-16T09:17:25Z</time>
      </trkpt>
      <trkpt lat="47.78643" lon="5.0705">
        <ele>345.46</ele>
        <time>2021-10-16T09:17:28Z</time>
      </trkpt>
      <trkpt lat="47.78625" lon="5.07073">
        <ele>345.59</ele>
        <time>2021-10-16T09:17:45Z</time>
      </trkpt>
      <trkpt lat="47.78624" lon="5.07075">
        <ele>345.45</ele>
        <time>2021-10-16T09:17:47Z</time>
      </trkpt>
      <trkpt lat="47.78622" lon="5.0708">
        <ele>345.58</ele>
        <time>2021-10-16T09:17:51Z</time>
      </trkpt>
      <trkpt lat="47.7862" lon="5.07083">
        <ele>345.44</ele>
        <time>2021-10-16T09:17:53Z</time>
      </trkpt>
      <trkpt lat="47.78613" lon="5.07098">
        <ele>345.52</ele>
        <time>2021-10-16T09:18:02Z</time>
      </trkpt>
      <trkpt lat="47.78604" lon="5.07121">
        <ele>346.03</ele>
        <time>2021-10-16T09:18:18Z</time>
      </trkpt>
      <trkpt lat="47.7859" lon="5.07142">
        <ele>346</ele>
        <time>2021-10-16T09:18:36Z</time>
      </trkpt>
      <trkpt lat="47.78586" lon="5.07151">
        <ele>345.51</ele>
        <time>2021-10-16T09:18:43Z</time>
      </trkpt>
      <trkpt lat="47.78573" lon="5.07168">
        <ele>344.38</ele>
        <time>2021-10-16T09:18:57Z</time>
      </trkpt>
      <trkpt lat="47.78569" lon="5.07174">
        <ele>344.46</ele>
        <time>2021-10-16T09:19:02Z</time>
      </trkpt>
      <trkpt lat="47.78559" lon="5.07182">
        <ele>344.58</ele>
        <time>2021-10-16T09:19:18Z</time>
      </trkpt>
      <trkpt lat="47.78558" lon="5.07188">
        <ele>345.48</ele>
        <time>2021-10-16T09:19:39Z</time>
      </trkpt>
      <trkpt lat="47.78558" lon="5.0719">
        <ele>345.14</ele>
        <time>2021-10-16T09:20:32Z</time>
      </trkpt>
      <trkpt lat="47.78558" lon="5.07188">
        <ele>344.73</ele>
        <time>2021-10-16T09:20:59Z</time>
      </trkpt>
      <trkpt lat="47.78559" lon="5.07185">
        <ele>344.88</ele>
        <time>2021-10-16T09:21:24Z</time>
      </trkpt>
      <trkpt lat="47.78553" lon="5.0718">
        <ele>344.95</ele>
        <time>2021-10-16T09:21:58Z</time>
      </trkpt>
      <trkpt lat="47.78547" lon="5.07177">
        <ele>345.28</ele>
        <time>2021-10-16T09:22:13Z</time>
      </trkpt>
      <trkpt lat="47.78537" lon="5.0717">
        <ele>345.6</ele>
        <time>2021-10-16T09:22:20Z</time>
      </trkpt>
      <trkpt lat="47.78531" lon="5.07166">
        <ele>346.03</ele>
        <time>2021-10-16T09:22:24Z</time>
      </trkpt>
      <trkpt lat="47.78525" lon="5.07164">
        <ele>345.18</ele>
        <time>2021-10-16T09:22:39Z</time>
      </trkpt>
      <trkpt lat="47.78515" lon="5.07153">
        <ele>345.23</ele>
        <time>2021-10-16T09:22:58Z</time>
      </trkpt>
      <trkpt lat="47.78509" lon="5.07147">
        <ele>345.18</ele>
        <time>2021-10-16T09:23:06Z</time>
      </trkpt>
      <trkpt lat="47.78506" lon="5.07139">
        <ele>345.57</ele>
        <time>2021-10-16T09:23:10Z</time>
      </trkpt>
      <trkpt lat="47.78504" lon="5.07132">
        <ele>345.71</ele>
        <time>2021-10-16T09:23:15Z</time>
      </trkpt>
      <trkpt lat="47.78506" lon="5.07116">
        <ele>345.9</ele>
        <time>2021-10-16T09:23:28Z</time>
      </trkpt>
      <trkpt lat="47.78509" lon="5.07087">
        <ele>347.37</ele>
        <time>2021-10-16T09:23:46Z</time>
      </trkpt>
      <trkpt lat="47.78508" lon="5.07081">
        <ele>347.91</ele>
        <time>2021-10-16T09:23:50Z</time>
      </trkpt>
      <trkpt lat="47.78509" lon="5.07074">
        <ele>348.26</ele>
        <time>2021-10-16T09:23:55Z</time>
      </trkpt>
      <trkpt lat="47.78511" lon="5.07048">
        <ele>349.3</ele>
        <time>2021-10-16T09:24:12Z</time>
      </trkpt>
      <trkpt lat="47.78515" lon="5.07032">
        <ele>349.85</ele>
        <time>2021-10-16T09:24:23Z</time>
      </trkpt>
      <trkpt lat="47.78516" lon="5.07026">
        <ele>349.86</ele>
        <time>2021-10-16T09:24:27Z</time>
      </trkpt>
      <trkpt lat="47.78517" lon="5.07016">
        <ele>350.21</ele>
        <time>2021-10-16T09:24:33Z</time>
      </trkpt>
      <trkpt lat="47.78518" lon="5.0701">
        <ele>350.31</ele>
        <time>2021-10-16T09:24:37Z</time>
      </trkpt>
      <trkpt lat="47.78517" lon="5.06986">
        <ele>351.53</ele>
        <time>2021-10-16T09:24:54Z</time>
      </trkpt>
      <trkpt lat="47.78518" lon="5.06981">
        <ele>351.77</ele>
        <time>2021-10-16T09:24:58Z</time>
      </trkpt>
      <trkpt lat="47.78518" lon="5.06974">
        <ele>351.86</ele>
        <time>2021-10-16T09:25:02Z</time>
      </trkpt>
      <trkpt lat="47.78518" lon="5.06964">
        <ele>351.88</ele>
        <time>2021-10-16T09:25:08Z</time>
      </trkpt>
      <trkpt lat="47.78512" lon="5.06935">
        <ele>352.55</ele>
        <time>2021-10-16T09:25:26Z</time>
      </trkpt>
      <trkpt lat="47.78512" lon="5.06907">
        <ele>352.86</ele>
        <time>2021-10-16T09:25:44Z</time>
      </trkpt>
      <trkpt lat="47.78513" lon="5.06898">
        <ele>352.94</ele>
        <time>2021-10-16T09:25:50Z</time>
      </trkpt>
      <trkpt lat="47.78515" lon="5.0687">
        <ele>354.05</ele>
        <time>2021-10-16T09:26:06Z</time>
      </trkpt>
      <trkpt lat="47.78518" lon="5.0685">
        <ele>354.89</ele>
        <time>2021-10-16T09:26:19Z</time>
      </trkpt>
      <trkpt lat="47.78519" lon="5.0683">
        <ele>355.2</ele>
        <time>2021-10-16T09:26:35Z</time>
      </trkpt>
      <trkpt lat="47.78519" lon="5.06822">
        <ele>355.2</ele>
        <time>2021-10-16T09:26:54Z</time>
      </trkpt>
      <trkpt lat="47.78515" lon="5.06816">
        <ele>355.5</ele>
        <time>2021-10-16T09:26:58Z</time>
      </trkpt>
      <trkpt lat="47.78511" lon="5.0681">
        <ele>355.31</ele>
        <time>2021-10-16T09:27:02Z</time>
      </trkpt>
      <trkpt lat="47.78513" lon="5.06803">
        <ele>355.28</ele>
        <time>2021-10-16T09:27:11Z</time>
      </trkpt>
      <trkpt lat="47.78514" lon="5.06799">
        <ele>355.27</ele>
        <time>2021-10-16T09:27:14Z</time>
      </trkpt>
      <trkpt lat="47.78525" lon="5.06771">
        <ele>355</ele>
        <time>2021-10-16T09:27:34Z</time>
      </trkpt>
      <trkpt lat="47.78525" lon="5.0677">
        <ele>354.83</ele>
        <time>2021-10-16T09:27:35Z</time>
      </trkpt>
      <trkpt lat="47.78533" lon="5.06747">
        <ele>355.1</ele>
        <time>2021-10-16T09:27:51Z</time>
      </trkpt>
      <trkpt lat="47.78539" lon="5.06726">
        <ele>355.03</ele>
        <time>2021-10-16T09:28:05Z</time>
      </trkpt>
      <trkpt lat="47.78542" lon="5.0671">
        <ele>354.94</ele>
        <time>2021-10-16T09:28:14Z</time>
      </trkpt>
      <trkpt lat="47.78543" lon="5.06706">
        <ele>354.69</ele>
        <time>2021-10-16T09:28:17Z</time>
      </trkpt>
      <trkpt lat="47.78547" lon="5.06694">
        <ele>354.82</ele>
        <time>2021-10-16T09:28:24Z</time>
      </trkpt>
      <trkpt lat="47.78546" lon="5.06685">
        <ele>354.79</ele>
        <time>2021-10-16T09:28:29Z</time>
      </trkpt>
      <trkpt lat="47.78547" lon="5.06672">
        <ele>354.83</ele>
        <time>2021-10-16T09:28:39Z</time>
      </trkpt>
      <trkpt lat="47.78546" lon="5.06654">
        <ele>354.81</ele>
        <time>2021-10-16T09:28:50Z</time>
      </trkpt>
      <trkpt lat="47.78543" lon="5.06643">
        <ele>354.7</ele>
        <time>2021-10-16T09:28:59Z</time>
      </trkpt>
      <trkpt lat="47.78539" lon="5.0663">
        <ele>354.66</ele>
        <time>2021-10-16T09:29:09Z</time>
      </trkpt>
      <trkpt lat="47.78539" lon="5.06614">
        <ele>355.13</ele>
        <time>2021-10-16T09:29:17Z</time>
      </trkpt>
      <trkpt lat="47.78539" lon="5.06585">
        <ele>354.98</ele>
        <time>2021-10-16T09:29:35Z</time>
      </trkpt>
      <trkpt lat="47.78536" lon="5.06556">
        <ele>355.15</ele>
        <time>2021-10-16T09:29:51Z</time>
      </trkpt>
      <trkpt lat="47.78536" lon="5.06549">
        <ele>355.49</ele>
        <time>2021-10-16T09:29:56Z</time>
      </trkpt>
      <trkpt lat="47.78534" lon="5.06523">
        <ele>355.46</ele>
        <time>2021-10-16T09:30:11Z</time>
      </trkpt>
      <trkpt lat="47.78534" lon="5.06513">
        <ele>355.85</ele>
        <time>2021-10-16T09:30:16Z</time>
      </trkpt>
      <trkpt lat="47.78536" lon="5.06501">
        <ele>355.7</ele>
        <time>2021-10-16T09:30:25Z</time>
      </trkpt>
      <trkpt lat="47.78534" lon="5.06486">
        <ele>355.6</ele>
        <time>2021-10-16T09:30:34Z</time>
      </trkpt>
      <trkpt lat="47.78532" lon="5.06467">
        <ele>355.58</ele>
        <time>2021-10-16T09:30:47Z</time>
      </trkpt>
      <trkpt lat="47.78538" lon="5.06453">
        <ele>355.3</ele>
        <time>2021-10-16T09:31:03Z</time>
      </trkpt>
      <trkpt lat="47.78536" lon="5.06445">
        <ele>355.46</ele>
        <time>2021-10-16T09:31:22Z</time>
      </trkpt>
      <trkpt lat="47.78537" lon="5.06445">
        <ele>355.33</ele>
        <time>2021-10-16T09:31:24Z</time>
      </trkpt>
      <trkpt lat="47.78548" lon="5.06432">
        <ele>354.74</ele>
        <time>2021-10-16T09:31:40Z</time>
      </trkpt>
      <trkpt lat="47.78549" lon="5.06431">
        <ele>354.56</ele>
        <time>2021-10-16T09:31:42Z</time>
      </trkpt>
      <trkpt lat="47.78559" lon="5.06423">
        <ele>353.92</ele>
        <time>2021-10-16T09:31:58Z</time>
      </trkpt>
      <trkpt lat="47.78567" lon="5.06417">
        <ele>353.69</ele>
        <time>2021-10-16T09:32:20Z</time>
      </trkpt>
      <trkpt lat="47.78569" lon="5.06417">
        <ele>353.37</ele>
        <time>2021-10-16T09:33:26Z</time>
      </trkpt>
      <trkpt lat="47.78569" lon="5.06416">
        <ele>353.57</ele>
        <time>2021-10-16T09:33:45Z</time>
      </trkpt>
      <trkpt lat="47.78573" lon="5.06404">
        <ele>353.19</ele>
        <time>2021-10-16T09:34:01Z</time>
      </trkpt>
      <trkpt lat="47.78578" lon="5.06401">
        <ele>352.62</ele>
        <time>2021-10-16T09:34:15Z</time>
      </trkpt>
      <trkpt lat="47.78579" lon="5.06396">
        <ele>352.72</ele>
        <time>2021-10-16T09:34:38Z</time>
      </trkpt>
      <trkpt lat="47.7858" lon="5.06394">
        <ele>352.86</ele>
        <time>2021-10-16T09:35:16Z</time>
      </trkpt>
      <trkpt lat="47.7858" lon="5.06398">
        <ele>352.77</ele>
        <time>2021-10-16T09:35:48Z</time>
      </trkpt>
      <trkpt lat="47.78584" lon="5.06398">
        <ele>353.05</ele>
        <time>2021-10-16T09:36:30Z</time>
      </trkpt>
      <trkpt lat="47.7858" lon="5.06397">
        <ele>352.65</ele>
        <time>2021-10-16T09:37:27Z</time>
      </trkpt>
      <trkpt lat="47.78579" lon="5.06396">
        <ele>351.95</ele>
        <time>2021-10-16T09:38:07Z</time>
      </trkpt>
      <trkpt lat="47.78578" lon="5.06395">
        <ele>352.27</ele>
        <time>2021-10-16T09:38:39Z</time>
      </trkpt>
      <trkpt lat="47.78579" lon="5.06398">
        <ele>352.42</ele>
        <time>2021-10-16T09:39:14Z</time>
      </trkpt>
      <trkpt lat="47.78578" lon="5.06395">
        <ele>352.21</ele>
        <time>2021-10-16T09:39:42Z</time>
      </trkpt>
      <trkpt lat="47.7858" lon="5.06395">
        <ele>351.98</ele>
        <time>2021-10-16T09:40:05Z</time>
      </trkpt>
      <trkpt lat="47.7858" lon="5.06397">
        <ele>351.64</ele>
        <time>2021-10-16T09:40:37Z</time>
      </trkpt>
      <trkpt lat="47.78583" lon="5.06391">
        <ele>350.29</ele>
        <time>2021-10-16T09:41:07Z</time>
      </trkpt>
      <trkpt lat="47.78583" lon="5.0639">
        <ele>352.34</ele>
        <time>2021-10-16T09:41:09Z</time>
      </trkpt>
      <trkpt lat="47.78584" lon="5.06379">
        <ele>351.79</ele>
        <time>2021-10-16T09:41:29Z</time>
      </trkpt>
      <trkpt lat="47.78577" lon="5.06379">
        <ele>351.94</ele>
        <time>2021-10-16T09:41:51Z</time>
      </trkpt>
      <trkpt lat="47.78572" lon="5.06381">
        <ele>351.51</ele>
        <time>2021-10-16T09:42:11Z</time>
      </trkpt>
      <trkpt lat="47.78575" lon="5.06391">
        <ele>351.44</ele>
        <time>2021-10-16T09:42:34Z</time>
      </trkpt>
      <trkpt lat="47.78575" lon="5.06392">
        <ele>351.46</ele>
        <time>2021-10-16T09:42:35Z</time>
      </trkpt>
      <trkpt lat="47.78574" lon="5.064">
        <ele>351.69</ele>
        <time>2021-10-16T09:42:40Z</time>
      </trkpt>
      <trkpt lat="47.7857" lon="5.06402">
        <ele>352.22</ele>
        <time>2021-10-16T09:42:45Z</time>
      </trkpt>
      <trkpt lat="47.78565" lon="5.06405">
        <ele>351.46</ele>
        <time>2021-10-16T09:42:51Z</time>
      </trkpt>
      <trkpt lat="47.78563" lon="5.06407">
        <ele>352.78</ele>
        <time>2021-10-16T09:42:53Z</time>
      </trkpt>
      <trkpt lat="47.78555" lon="5.06408">
        <ele>352.52</ele>
        <time>2021-10-16T09:43:04Z</time>
      </trkpt>
    </trkseg>
  </trk>
</gpx>